Home > Products > Valid Products > TAF

000
FTUS44 KHGX 130530 CCA
TAFLBX
TAF COR
KLBX 130530Z 1306/1406 VRB03KT 1/4SM FG OVC006
     FM131300 05006KT 4SM BR SCT006 BKN025
     FM131500 08010KT P6SM OVC025
     FM131800 10013KT P6SM OVC025
     FM132100 13013KT P6SM BKN030
     FM140100 12008KT P6SM SCT015 BKN035=



000
FTUS44 KHGX 130530 CCA
TAFLBX
TAF COR
KLBX 130530Z 1306/1406 VRB03KT 1/4SM FG OVC006
     FM131300 05006KT 4SM BR SCT006 BKN025
     FM131500 08010KT P6SM OVC025
     FM131800 10013KT P6SM OVC025
     FM132100 13013KT P6SM BKN030
     FM140100 12008KT P6SM SCT015 BKN035=



000
FTUS44 KHGX 130530 CCA
TAFLBX
TAF COR
KLBX 130530Z 1306/1406 VRB03KT 1/4SM FG OVC006
     FM131300 05006KT 4SM BR SCT006 BKN025
     FM131500 08010KT P6SM OVC025
     FM131800 10013KT P6SM OVC025
     FM132100 13013KT P6SM BKN030
     FM140100 12008KT P6SM SCT015 BKN035=



000
FTUS44 KHGX 130526
TAFIAH
TAF
KIAH 130526Z 1306/1412 VRB04KT P6SM FEW040
     FM130800 VRB04KT P6SM SCT035
     FM131200 06006KT P6SM BKN035
     FM131500 09014KT P6SM BKN025
     FM132100 12014KT P6SM BKN030
     FM140100 13009KT P6SM SCT015 BKN035
     FM140900 14007KT P6SM FEW006 BKN015 OVC035=



000
FTUS44 KHGX 130526
TAFGLS
TAF
KGLS 130526Z 1306/1406 VRB04KT 6SM BR SKC
      TEMPO 1308/1312 2SM BR BKN015
     FM131200 06011KT P6SM BKN015
     FM131500 07016KT P6SM BKN020
     FM132000 09013KT P6SM SCT025 OVC045
     FM140100 10012KT P6SM SCT015 BKN035=



000
FTUS44 KHGX 130526
TAFCXO
TAF
KCXO 130526Z 1306/1406 VRB03KT P6SM FEW045
     FM130900 VRB04KT P6SM BKN035
     FM131400 07006KT P6SM BKN025
     FM131900 12010KT P6SM BKN025
     FM140000 13007KT P6SM SCT015 BKN035
     FM140400 13006KT P6SM BKN015 OVC035=



000
FTUS44 KHGX 130526
TAFLBX
TAF
KLBX 130526Z 1306/1406 VRB03KT 1/2SM FG BKN009
     FM130800 00000KT 1/4SM FG BKN002 OVC007
     FM131500 08010KT P6SM OVC025
     FM131800 10013KT P6SM OVC025
     FM132100 13013KT P6SM BKN030
     FM140100 12008KT P6SM SCT015 BKN035=



000
FTUS44 KHGX 130526
TAFSGR
TAF
KSGR 130526Z 1306/1406 VRB04KT 6SM BR SKC
     FM130800 VRB04KT 3SM BR FEW006 SCT035
     FM131200 06006KT P6SM BKN035
     FM131500 08011KT P6SM BKN025
     FM132100 13013KT P6SM BKN030
     FM140100 12008KT P6SM SCT015 BKN035=



000
FTUS44 KHGX 130526
TAFCLL
TAF
KCLL 130526Z 1306/1406 02006KT P6SM SKC
     FM130900 04006KT P6SM SCT035
     FM131500 08010KT P6SM BKN025
     FM131800 12013KT P6SM OVC025
     FM140000 13012KT P6SM BKN035
     FM140400 14009KT P6SM BKN015 OVC025=



000
FTUS44 KHGX 130526
TAFUTS
TAF
KUTS 130526Z 1306/1406 VRB03KT P6SM FEW035
     FM130900 06002KT P6SM BKN025
     FM131500 09005KT P6SM BKN025
     FM131800 12007KT P6SM BKN025
     FM132300 14006KT P6SM BKN035
     FM140400 14005KT P6SM SCT015 OVC025=



000
FTUS44 KHGX 130526
TAFHOU
TAF
KHOU 130526Z 1306/1406 VRB04KT P6SM SKC
     FM130800 VRB04KT 6SM BR SCT035
     FM131200 06006KT P6SM BKN035
     FM131500 09013KT P6SM BKN025
     FM132100 11014KT P6SM BKN030
     FM140100 12008KT P6SM SCT015 BKN035=



000
FTUS44 KHGX 130435 AAB
TAFLBX
TAF AMD
KLBX 130435Z 1305/1324 VRB04KT 1SM BR SCT005
     FM130800 00000KT 1/2SM FG BKN002 OVC007
     FM131500 08010KT P6SM OVC025
     FM131800 10013KT P6SM OVC025=



000
FTUS44 KHGX 130407 AAA
TAFLBX
TAF AMD
KLBX 130407Z 1304/1324 VRB04KT 6SM BR SKC
     FM130600 VRB03KT 3SM BR FEW250
     FM130800 00000KT 1/2SM FG BKN002 OVC007
     FM131500 08010KT P6SM OVC025
     FM131800 10013KT P6SM OVC025=



000
FTUS44 KHGX 130302 AAA
TAFHOU
TAF AMD
KHOU 130302Z 1303/1324 VRB04KT P6SM SKC
     FM131000 06004KT P6SM BKN025
     FM131500 09012KT P6SM BKN025
     FM132100 10011KT P6SM OVC025=



000
FTUS44 KHGX 130302 AAA
TAFHOU
TAF AMD
KHOU 130302Z 1303/1324 VRB04KT P6SM SKC
     FM131000 06004KT P6SM BKN025
     FM131500 09012KT P6SM BKN025
     FM132100 10011KT P6SM OVC025=



000
FTUS44 KHGX 130302 AAA
TAFHOU
TAF AMD
KHOU 130302Z 1303/1324 VRB04KT P6SM SKC
     FM131000 06004KT P6SM BKN025
     FM131500 09012KT P6SM BKN025
     FM132100 10011KT P6SM OVC025=



000
FTUS44 KHGX 130301 AAA
TAFGLS
TAF AMD
KGLS 130301Z 1303/1324 18006KT 6SM BR SKC
      TEMPO 1307/1310 1 1/2SM BR BKN015
     FM131000 06007KT 5SM BR BKN015
     FM131200 06011KT P6SM BKN015
     FM131500 07016KT P6SM BKN020
     FM132000 09013KT P6SM SCT025 OVC045=



000
FTUS44 KHGX 130301 AAA
TAFGLS
TAF AMD
KGLS 130301Z 1303/1324 18006KT 6SM BR SKC
      TEMPO 1307/1310 1 1/2SM BR BKN015
     FM131000 06007KT 5SM BR BKN015
     FM131200 06011KT P6SM BKN015
     FM131500 07016KT P6SM BKN020
     FM132000 09013KT P6SM SCT025 OVC045=



000
FTUS44 KHGX 130300 AAA
TAFIAH
TAF AMD
KIAH 130300Z 1303/1406 VRB04KT P6SM SKC
     FM130900 04004KT P6SM BKN025
     FM131200 07007KT P6SM BKN025
     FM131600 10014KT P6SM BKN025
     FM132100 12013KT P6SM BKN030
     FM140100 12007KT P6SM SCT015 BKN035=



000
FTUS44 KHGX 122326
TAFHOU
TAF
KHOU 122326Z 1300/1324 18005KT P6SM FEW035
     FM131000 06004KT P6SM BKN025
     FM131500 09012KT P6SM BKN025
     FM132100 10011KT P6SM OVC025=



000
FTUS44 KHGX 122326
TAFLBX
TAF
KLBX 122326Z 1300/1324 18006KT P6SM FEW250
     FM130400 VRB04KT 3SM BR FEW250
     FM130600 00000KT 1/2SM FG BKN002 OVC007
     FM131500 08010KT P6SM OVC025
     FM131800 10013KT P6SM OVC025=



000
FTUS44 KHGX 122326
TAFIAH
TAF
KIAH 122326Z 1300/1406 VRB05KT P6SM FEW035
     FM130900 04004KT P6SM BKN025
     FM131200 07007KT P6SM BKN025
     FM131600 10014KT P6SM BKN025
     FM132100 12013KT P6SM BKN030
     FM140100 12007KT P6SM SCT015 BKN035=



000
FTUS44 KHGX 122326
TAFSGR
TAF
KSGR 122326Z 1300/1324 18005KT P6SM FEW250
     FM130500 16002KT 3SM BR SKC
     FM130900 06004KT 4SM BR BKN025
     FM131500 09012KT P6SM OVC025=



000
FTUS44 KHGX 122326
TAFHOU
TAF
KHOU 122326Z 1300/1324 18005KT P6SM FEW035
     FM131000 06004KT P6SM BKN025
     FM131500 09012KT P6SM BKN025
     FM132100 10011KT P6SM OVC025=



000
FTUS44 KHGX 122326
TAFUTS
TAF
KUTS 122326Z 1300/1324 VRB03KT P6SM SKC
     FM130800 06002KT P6SM BKN025
     FM131500 09005KT P6SM BKN025
     FM131800 12007KT P6SM BKN025=



000
FTUS44 KHGX 122326
TAFIAH
TAF
KIAH 122326Z 1300/1406 VRB05KT P6SM FEW035
     FM130900 04004KT P6SM BKN025
     FM131200 07007KT P6SM BKN025
     FM131600 10014KT P6SM BKN025
     FM132100 12013KT P6SM BKN030
     FM140100 12007KT P6SM SCT015 BKN035=



000
FTUS44 KHGX 122326
TAFCLL
TAF
KCLL 122326Z 1300/1324 02006KT P6SM SKC
     FM131000 04006KT P6SM BKN025
     FM131500 08010KT P6SM BKN025
     FM131800 12012KT P6SM BKN025=



000
FTUS44 KHGX 122326
TAFGLS
TAF
KGLS 122326Z 1300/1324 19010KT P6SM SKC
     FM130300 18006KT 5SM BR SKC
      TEMPO 1306/1310 1 1/2SM BR BKN015
     FM131000 06007KT 5SM BR BKN015
     FM131200 06011KT P6SM BKN015
     FM131500 07016KT P6SM BKN020
     FM132000 09013KT P6SM SCT025 OVC045=



000
FTUS44 KHGX 122326
TAFSGR
TAF
KSGR 122326Z 1300/1324 18005KT P6SM FEW250
     FM130500 16002KT 3SM BR SKC
     FM130900 06004KT 4SM BR BKN025
     FM131500 09012KT P6SM OVC025=



000
FTUS44 KHGX 122326
TAFLBX
TAF
KLBX 122326Z 1300/1324 18006KT P6SM FEW250
     FM130400 VRB04KT 3SM BR FEW250
     FM130600 00000KT 1/2SM FG BKN002 OVC007
     FM131500 08010KT P6SM OVC025
     FM131800 10013KT P6SM OVC025=



000
FTUS44 KHGX 122326
TAFUTS
TAF
KUTS 122326Z 1300/1324 VRB03KT P6SM SKC
     FM130800 06002KT P6SM BKN025
     FM131500 09005KT P6SM BKN025
     FM131800 12007KT P6SM BKN025=



000
FTUS44 KHGX 122326
TAFCXO
TAF
KCXO 122326Z 1300/1324 VRB03KT P6SM SKC
     FM130900 VRB04KT P6SM BKN025
     FM131200 06005KT P6SM BKN025
     FM131600 09007KT P6SM BKN025
     FM131900 12009KT P6SM BKN025=



000
FTUS44 KHGX 122326
TAFCLL
TAF
KCLL 122326Z 1300/1324 02006KT P6SM SKC
     FM131000 04006KT P6SM BKN025
     FM131500 08010KT P6SM BKN025
     FM131800 12012KT P6SM BKN025=



000
FTUS44 KHGX 122326
TAFGLS
TAF
KGLS 122326Z 1300/1324 19010KT P6SM SKC
     FM130300 18006KT 5SM BR SKC
      TEMPO 1306/1310 1 1/2SM BR BKN015
     FM131000 06007KT 5SM BR BKN015
     FM131200 06011KT P6SM BKN015
     FM131500 07016KT P6SM BKN020
     FM132000 09013KT P6SM SCT025 OVC045=



000
FTUS44 KHGX 122326
TAFUTS
TAF
KUTS 122326Z 1300/1324 VRB03KT P6SM SKC
     FM130800 06002KT P6SM BKN025
     FM131500 09005KT P6SM BKN025
     FM131800 12007KT P6SM BKN025=



000
FTUS44 KHGX 122326
TAFLBX
TAF
KLBX 122326Z 1300/1324 18006KT P6SM FEW250
     FM130400 VRB04KT 3SM BR FEW250
     FM130600 00000KT 1/2SM FG BKN002 OVC007
     FM131500 08010KT P6SM OVC025
     FM131800 10013KT P6SM OVC025=



000
FTUS44 KHGX 122326
TAFGLS
TAF
KGLS 122326Z 1300/1324 19010KT P6SM SKC
     FM130300 18006KT 5SM BR SKC
      TEMPO 1306/1310 1 1/2SM BR BKN015
     FM131000 06007KT 5SM BR BKN015
     FM131200 06011KT P6SM BKN015
     FM131500 07016KT P6SM BKN020
     FM132000 09013KT P6SM SCT025 OVC045=



000
FTUS44 KHGX 122326
TAFCXO
TAF
KCXO 122326Z 1300/1324 VRB03KT P6SM SKC
     FM130900 VRB04KT P6SM BKN025
     FM131200 06005KT P6SM BKN025
     FM131600 09007KT P6SM BKN025
     FM131900 12009KT P6SM BKN025=



000
FTUS44 KHGX 122326
TAFCLL
TAF
KCLL 122326Z 1300/1324 02006KT P6SM SKC
     FM131000 04006KT P6SM BKN025
     FM131500 08010KT P6SM BKN025
     FM131800 12012KT P6SM BKN025=



000
FTUS44 KHGX 122326
TAFHOU
TAF
KHOU 122326Z 1300/1324 18005KT P6SM FEW035
     FM131000 06004KT P6SM BKN025
     FM131500 09012KT P6SM BKN025
     FM132100 10011KT P6SM OVC025=



000
FTUS44 KHGX 122326
TAFSGR
TAF
KSGR 122326Z 1300/1324 18005KT P6SM FEW250
     FM130500 16002KT 3SM BR SKC
     FM130900 06004KT 4SM BR BKN025
     FM131500 09012KT P6SM OVC025=



000
FTUS44 KHGX 122326
TAFIAH
TAF
KIAH 122326Z 1300/1406 VRB05KT P6SM FEW035
     FM130900 04004KT P6SM BKN025
     FM131200 07007KT P6SM BKN025
     FM131600 10014KT P6SM BKN025
     FM132100 12013KT P6SM BKN030
     FM140100 12007KT P6SM SCT015 BKN035=



000
FTUS44 KHGX 122326
TAFCXO
TAF
KCXO 122326Z 1300/1324 VRB03KT P6SM SKC
     FM130900 VRB04KT P6SM BKN025
     FM131200 06005KT P6SM BKN025
     FM131600 09007KT P6SM BKN025
     FM131900 12009KT P6SM BKN025=



000
FTUS44 KHGX 122107 AAA
TAFHOU
TAF AMD
KHOU 122107Z 1221/1318 25012KT P6SM SKC
     FM122200 18005KT P6SM FEW250
     FM130900 06004KT P6SM BKN025
     FM131500 09012KT P6SM BKN025=



000
FTUS44 KHGX 122107 AAA
TAFSGR
TAF AMD
KSGR 122107Z 1221/1318 VRB06KT P6SM SKC
     FM122200 18005KT P6SM FEW250
     FM130500 16002KT 3SM BR SKC
     FM130900 06004KT 4SM BR BKN025
     FM131500 09012KT P6SM BKN025=



000
FTUS44 KHGX 122107 AAA
TAFIAH
TAF AMD
KIAH 122107Z 1221/1324 VRB06KT P6SM SKC
     FM122300 15005KT P6SM FEW250
     FM130900 04004KT P6SM BKN025
     FM131200 07007KT P6SM BKN025
     FM131600 10013KT P6SM BKN025
     FM131900 11014KT P6SM BKN030=



000
FTUS44 KHGX 122107 AAA
TAFSGR
TAF AMD
KSGR 122107Z 1221/1318 VRB06KT P6SM SKC
     FM122200 18005KT P6SM FEW250
     FM130500 16002KT 3SM BR SKC
     FM130900 06004KT 4SM BR BKN025
     FM131500 09012KT P6SM BKN025=



000
FTUS44 KHGX 122107 AAA
TAFHOU
TAF AMD
KHOU 122107Z 1221/1318 25012KT P6SM SKC
     FM122200 18005KT P6SM FEW250
     FM130900 06004KT P6SM BKN025
     FM131500 09012KT P6SM BKN025=



000
FTUS44 KHGX 121720
TAFUTS
TAF
KUTS 121720Z 1218/1318 23008KT P6SM FEW020
     FM122100 VRB03KT P6SM SKC
     FM130900 06002KT P6SM BKN025
     FM131500 09005KT P6SM BKN025=



000
FTUS44 KHGX 121720
TAFLBX
TAF
KLBX 121720Z 1218/1318 24011KT P6SM SKC
     FM122200 18006KT P6SM FEW250
     FM130300 VRB02KT 3SM BR FEW010
     FM130600 VRB02KT 1/2SM FG BKN007
     FM131500 07012KT P6SM BKN020=



000
FTUS44 KHGX 121720
TAFIAH
TAF
KIAH 121720Z 1218/1324 25010KT P6SM FEW020
     FM122300 15005KT P6SM FEW250
     FM130900 04004KT P6SM BKN025
     FM131200 07007KT P6SM BKN025
     FM131600 10013KT P6SM BKN025
     FM131900 11014KT P6SM BKN030=



000
FTUS44 KHGX 121720
TAFHOU
TAF
KHOU 121720Z 1218/1318 23010KT P6SM FEW025
     FM122200 18005KT P6SM FEW250
     FM130900 06004KT P6SM BKN025
     FM131500 09012KT P6SM BKN025=



000
FTUS44 KHGX 121720
TAFUTS
TAF
KUTS 121720Z 1218/1318 23008KT P6SM FEW020
     FM122100 VRB03KT P6SM SKC
     FM130900 06002KT P6SM BKN025
     FM131500 09005KT P6SM BKN025=



000
FTUS44 KHGX 121720
TAFLBX
TAF
KLBX 121720Z 1218/1318 24011KT P6SM SKC
     FM122200 18006KT P6SM FEW250
     FM130300 VRB02KT 3SM BR FEW010
     FM130600 VRB02KT 1/2SM FG BKN007
     FM131500 07012KT P6SM BKN020=



000
FTUS44 KHGX 121720
TAFIAH
TAF
KIAH 121720Z 1218/1324 25010KT P6SM FEW020
     FM122300 15005KT P6SM FEW250
     FM130900 04004KT P6SM BKN025
     FM131200 07007KT P6SM BKN025
     FM131600 10013KT P6SM BKN025
     FM131900 11014KT P6SM BKN030=



000
FTUS44 KHGX 121720
TAFHOU
TAF
KHOU 121720Z 1218/1318 23010KT P6SM FEW025
     FM122200 18005KT P6SM FEW250
     FM130900 06004KT P6SM BKN025
     FM131500 09012KT P6SM BKN025=



000
FTUS44 KHGX 121720
TAFGLS
TAF
KGLS 121720Z 1218/1318 23011KT P6SM SKC
     FM122100 19010KT P6SM SKC
     FM130300 18006KT 5SM BR SKC
      TEMPO 1306/1310 1 1/2SM BR BKN015
     FM131000 06007KT 5SM BR BKN015
     FM131200 06011KT P6SM BKN015
     FM131500 07016KT P6SM BKN020=



000
FTUS44 KHGX 121720
TAFSGR
TAF
KSGR 121720Z 1218/1318 24010KT P6SM SKC
     FM122200 18005KT P6SM FEW250
     FM130500 16002KT 3SM BR SKC
     FM130900 06004KT 4SM BR BKN025
     FM131500 09012KT P6SM BKN025=



000
FTUS44 KHGX 121720
TAFCLL
TAF
KCLL 121720Z 1218/1318 22009KT P6SM SKC
     FM122100 02006KT P6SM SKC
     FM131000 04006KT P6SM BKN025
     FM131500 08010KT P6SM BKN025
     FM131700 11010KT P6SM BKN025=



000
FTUS44 KHGX 121720
TAFCXO
TAF
KCXO 121720Z 1218/1318 24010KT P6SM SCT020
     FM122100 25005KT P6SM SKC
     FM130000 VRB03KT P6SM SKC
     FM130900 VRB04KT P6SM BKN025
     FM131200 06005KT P6SM BKN025
     FM131600 09007KT P6SM BKN025=



000
FTUS44 KHGX 121720
TAFLBX
TAF
KLBX 121720Z 1218/1318 23007KT P6SM SKC
     FM122200 18006KT P6SM FEW250
     FM130300 00000KT 3SM BR FEW250
     FM130600 00000KT 1/2SM FG FEW250=



000
FTUS44 KHGX 121720
TAFLBX
TAF
KLBX 121720Z 1218/1318 23007KT P6SM SKC
     FM122200 18006KT P6SM FEW250
     FM130300 00000KT 3SM BR FEW250
     FM130600 00000KT 1/2SM FG FEW250=



000
FTUS44 KHGX 121720
TAFLBX
TAF
KLBX 121720Z 1218/1318 23007KT P6SM SKC
     FM122200 18006KT P6SM FEW250
     FM130300 00000KT 3SM BR FEW250
     FM130600 00000KT 1/2SM FG FEW250=



000
FTUS44 KHGX 121720
TAFSGR
TAF
KSGR 121720Z 1218/1318 24010KT P6SM SKC
     FM122200 18005KT P6SM FEW250
     FM130500 16002KT 3SM BR SKC
     FM130900 06004KT 4SM BR BKN025
     FM131500 09012KT P6SM BKN025=



000
FTUS44 KHGX 121720
TAFCLL
TAF
KCLL 121720Z 1218/1318 22009KT P6SM SKC
     FM122100 02006KT P6SM SKC
     FM131000 04006KT P6SM BKN025
     FM131500 08010KT P6SM BKN025
     FM131700 11010KT P6SM BKN025=



000
FTUS44 KHGX 121720
TAFGLS
TAF
KGLS 121720Z 1218/1318 23011KT P6SM SKC
     FM122100 19010KT P6SM SKC
     FM130300 18006KT 5SM BR SKC
      TEMPO 1306/1310 1 1/2SM BR BKN015
     FM131000 06007KT 5SM BR BKN015
     FM131200 06011KT P6SM BKN015
     FM131500 07016KT P6SM BKN020=



000
FTUS44 KHGX 121720
TAFCXO
TAF
KCXO 121720Z 1218/1318 24010KT P6SM SCT020
     FM122100 25005KT P6SM SKC
     FM130000 VRB03KT P6SM SKC
     FM130900 VRB04KT P6SM BKN025
     FM131200 06005KT P6SM BKN025
     FM131600 09007KT P6SM BKN025=



000
FTUS44 KHGX 121609 AAC
TAFCXO
TAF AMD
KCXO 121609Z 1216/1312 24010KT P6SM OVC008
     FM121730 24007KT P6SM FEW015
     FM130000 VRB03KT P6SM SKC
     FM130800 08003KT 4SM BR BKN025=



000
FTUS44 KHGX 121609 AAC
TAFCXO
TAF AMD
KCXO 121609Z 1216/1312 24010KT P6SM OVC008
     FM121730 24007KT P6SM FEW015
     FM130000 VRB03KT P6SM SKC
     FM130800 08003KT 4SM BR BKN025=



000
FTUS44 KHGX 121608 AAB
TAFCLL
TAF AMD
KCLL 121608Z 1216/1312 22010KT P6SM SCT010
     FM122000 35008KT P6SM SKC
     FM130900 03007KT P6SM BKN030=



000
FTUS44 KHGX 121512 AAC
TAFUTS
TAF AMD
KUTS 121512Z 1215/1312 23013G18KT P6SM OVC007
     FM121630 25004KT P6SM SKC
     FM130900 07003KT P6SM BKN025=



000
FTUS44 KHGX 121509 AAB
TAFCXO
TAF AMD
KCXO 121509Z 1215/1312 24008KT P6SM OVC006
     FM121630 24007KT P6SM FEW015
     FM130000 VRB03KT P6SM SKC
     FM130800 08003KT 4SM BR BKN025=



000
FTUS44 KHGX 121506 AAB
TAFSGR
TAF AMD
KSGR 121506Z 1215/1312 25004KT 1SM BR OVC002
      TEMPO 1215/1216 4SM BR SCT005
     FM121600 23008KT P6SM SKC
     FM122200 18005KT P6SM FEW250
     FM130900 06004KT P6SM BKN025=



000
FTUS44 KHGX 121506 AAB
TAFSGR
TAF AMD
KSGR 121506Z 1215/1312 25004KT 1SM BR OVC002
      TEMPO 1215/1216 4SM BR SCT005
     FM121600 23008KT P6SM SKC
     FM122200 18005KT P6SM FEW250
     FM130900 06004KT P6SM BKN025=



000
FTUS44 KHGX 121504 AAB
TAFLBX
TAF AMD
KLBX 121504Z 1215/1312 23007KT P6SM SKC
     FM122200 18006KT P6SM FEW250
     FM130300 00000KT 3SM BR FEW250
     FM130600 00000KT 1/2SM FG FEW250=



000
FTUS44 KHGX 121504 AAB
TAFLBX
TAF AMD
KLBX 121504Z 1215/1312 23007KT P6SM SKC
     FM122200 18006KT P6SM FEW250
     FM130300 00000KT 3SM BR FEW250
     FM130600 00000KT 1/2SM FG FEW250=



000
FTUS44 KHGX 121504 AAB
TAFLBX
TAF AMD
KLBX 121504Z 1215/1312 23007KT P6SM SKC
     FM122200 18006KT P6SM FEW250
     FM130300 00000KT 3SM BR FEW250
     FM130600 00000KT 1/2SM FG FEW250=



000
FTUS44 KHGX 121501 AAB
TAFHOU
TAF AMD
KHOU 121501Z 1215/1312 23008KT P6SM SKC
     FM122200 18005KT P6SM FEW250
     FM130900 06004KT P6SM BKN025=



000
FTUS44 KHGX 121459 AAB
TAFIAH
TAF AMD
KIAH 121459Z 1215/1318 26005KT P6SM BCFG SCT004
     FM121600 24008KT P6SM SKC
     FM122300 VRB04KT P6SM FEW250
     FM130900 05004KT P6SM BKN025
     FM131600 08012KT P6SM BKN030=



000
FTUS44 KHGX 121400 AAB
TAFUTS
TAF AMD
KUTS 121400Z 1214/1312 22009G16KT P6SM SCT008
      TEMPO 1214/1216 5SM BR OVC008
     FM121800 23008KT P6SM SCT020
     FM122100 VRB03KT P6SM SKC
     FM130300 02003KT P6SM SKC=



000
FTUS44 KHGX 121344 CCA
TAFLBX
TAF COR
KLBX 121344Z 1214/1312 00000KT 1/4SM FG SKC
      TEMPO 1214/1215 1SM BR
     FM121530 22010KT P6SM SKC
     FM130300 VRB04KT P6SM MIFG SCT025
     FM130900 35006KT P6SM OVC012=



000
FTUS44 KHGX 121338 AAA
TAFLBX
TAF AMD
KLBX 121338Z 1214/1312 00000KT 1/2SM FG SKC
      TEMPO 1214/1215 3SM BR
     FM121500 22011KT P6SM SKC
     FM130300 VRB04KT P6SM MIFG SCT025
     FM130900 35006KT P6SM OVC012=



000
FTUS44 KHGX 121338 AAA
TAFSGR
TAF AMD
KSGR 121338Z 1214/1312 00000KT 1/4SM FG SKC
      TEMPO 1214/1215 3SM BR
     FM121500 25009KT P6SM SKC
     FM130200 VRB04KT P6SM MIFG SKC
     FM130600 04005KT P6SM OVC015=



000
FTUS44 KHGX 121338 AAA
TAFCLL
TAF AMD
KCLL 121338Z 1214/1312 22003KT 1/4SM FG SKC
      TEMPO 1214/1215 5SM BR SCT020
     FM121500 25007KT P6SM SKC
     FM122000 35008KT P6SM SKC
     FM130900 03007KT P6SM BKN030=



000
FTUS44 KHGX 121338 AAA
TAFCXO
TAF AMD
KCXO 121338Z 1214/1312 22004KT 1/2SM FG OVC002
      TEMPO 1214/1215 3SM BR SCT020
     FM121500 25007KT P6SM SKC
     FM122200 VRB03KT P6SM SKC
     FM130600 02003KT P6SM BKN020
     FM130900 04004KT P6SM OVC025=



000
FTUS44 KHGX 121338 AAA
TAFGLS
TAF AMD
KGLS 121338Z 1214/1312 00000KT P6SM MIFG SKC
     FM121600 23010KT P6SM SKC
     FM130700 VRB05KT P6SM MIFG SCT030
      TEMPO 1307/1311 2SM BR
     FM131100 04011KT 6SM HZ OVC025=



000
FTUS44 KHGX 121338 AAA
TAFIAH
TAF AMD
KIAH 121338Z 1214/1318 00000KT P6SM MIFG SKC
      TEMPO 1214/1215 3SM BR
     FM121500 25007KT P6SM SKC
     FM122200 VRB04KT P6SM SKC
     FM130500 03004KT P6SM SCT025
      TEMPO 1310/1314 BKN025
     FM131400 08007KT P6SM OVC025=



000
FTUS44 KHGX 121338 AAA
TAFHOU
TAF AMD
KHOU 121338Z 1214/1312 00000KT 1/4SM FG SKC
      TEMPO 1214/1215 3SM BR
     FM121500 25009KT P6SM SKC
     FM122300 VRB04KT P6SM SKC
     FM130600 07004KT P6SM OVC025=



000
FTUS44 KHGX 121338 AAA
TAFUTS
TAF AMD
KUTS 121338Z 1214/1312 24005KT P6SM SKC
      TEMPO 1214/1215 5SM BR
     FM122100 VRB03KT P6SM SKC
     FM130300 02003KT P6SM SKC=



000
FTUS44 KHGX 121144 CCA
TAFCXO
TAF COR
KCXO 121144Z 1212/1312 24004KT 2SM BR SKC
      TEMPO 1212/1214 1/2SM FG
     FM122200 VRB03KT P6SM SKC
     FM130600 02003KT P6SM BKN020
     FM130900 04004KT P6SM OVC025=



000
FTUS44 KHGX 121144 CCA
TAFCXO
TAF COR
KCXO 121144Z 1212/1312 24004KT 2SM BR SKC
      TEMPO 1212/1214 1/2SM FG
     FM122200 VRB03KT P6SM SKC
     FM130600 02003KT P6SM BKN020
     FM130900 04004KT P6SM OVC025=



000
FTUS44 KHGX 121144 CCA
TAFCXO
TAF COR
KCXO 121144Z 1212/1312 24004KT 2SM BR SKC
      TEMPO 1212/1214 1/2SM FG
     FM122200 VRB03KT P6SM SKC
     FM130600 02003KT P6SM BKN020
     FM130900 04004KT P6SM OVC025=



000
FTUS44 KHGX 121132
TAFCXO
TAF
KCXO 121132Z 1212/1312 24004KT P6SM SKC
      TEMPO 1212/1214 5SM BR
     FM122200 VRB03KT P6SM SKC
     FM130600 02003KT P6SM BKN020
     FM130900 04004KT P6SM OVC025=



000
FTUS44 KHGX 121132
TAFIAH
TAF
KIAH 121132Z 1212/1318 22005KT P6SM MIFG SKC
      TEMPO 1212/1215 3SM BR
     FM121500 25007KT P6SM SKC
     FM122200 VRB04KT P6SM SKC
     FM130500 03004KT P6SM SCT025
      TEMPO 1310/1314 BKN025
     FM131400 08007KT P6SM OVC025=



000
FTUS44 KHGX 121132
TAFIAH
TAF
KIAH 121132Z 1212/1318 22005KT P6SM MIFG SKC
      TEMPO 1212/1215 3SM BR
     FM121500 25007KT P6SM SKC
     FM122200 VRB04KT P6SM SKC
     FM130500 03004KT P6SM SCT025
      TEMPO 1310/1314 BKN025
     FM131400 08007KT P6SM OVC025=



000
FTUS44 KHGX 121132
TAFCXO
TAF
KCXO 121132Z 1212/1312 24004KT P6SM SKC
      TEMPO 1212/1214 5SM BR
     FM122200 VRB03KT P6SM SKC
     FM130600 02003KT P6SM BKN020
     FM130900 04004KT P6SM OVC025=



000
FTUS44 KHGX 121132
TAFUTS
TAF
KUTS 121132Z 1212/1312 22007KT P6SM SKC
      TEMPO 1212/1215 5SM BR
     FM122100 VRB03KT P6SM SKC
     FM130300 02003KT P6SM SKC=



000
FTUS44 KHGX 121132
TAFLBX
TAF
KLBX 121132Z 1212/1312 21003KT 1/2SM FG SKC
      TEMPO 1212/1213 1/4SM FG
     FM121500 22011KT P6SM SKC
     FM130300 VRB04KT P6SM MIFG SCT025
     FM130900 35006KT P6SM OVC012=



000
FTUS44 KHGX 121132
TAFUTS
TAF
KUTS 121132Z 1212/1312 22007KT P6SM SKC
      TEMPO 1212/1215 5SM BR
     FM122100 VRB03KT P6SM SKC
     FM130300 02003KT P6SM SKC=



000
FTUS44 KHGX 121132
TAFLBX
TAF
KLBX 121132Z 1212/1312 21003KT 1/2SM FG SKC
      TEMPO 1212/1213 1/4SM FG
     FM121500 22011KT P6SM SKC
     FM130300 VRB04KT P6SM MIFG SCT025
     FM130900 35006KT P6SM OVC012=



000
FTUS44 KHGX 121132
TAFSGR
TAF
KSGR 121132Z 1212/1312 00000KT 1SM BR SKC
      TEMPO 1212/1215 1/4SM FG
     FM121500 25009KT P6SM SKC
     FM130200 VRB04KT P6SM MIFG SKC
     FM130600 04005KT P6SM OVC015=



000
FTUS44 KHGX 121132
TAFCLL
TAF
KCLL 121132Z 1212/1312 22006KT P6SM SKC
      TEMPO 1212/1215 5SM BR
     FM122000 35008KT P6SM SKC
     FM130900 03007KT P6SM BKN030=



000
FTUS44 KHGX 121132
TAFHOU
TAF
KHOU 121132Z 1212/1312 00000KT 1SM BR SKC
      TEMPO 1212/1215 1/4SM FG
     FM121500 25009KT P6SM SKC
     FM122300 VRB04KT P6SM SKC
     FM130600 07004KT P6SM OVC025=



000
FTUS44 KHGX 121132
TAFGLS
TAF
KGLS 121132Z 1212/1312 22009KT P6SM SKC
     FM130700 VRB05KT P6SM MIFG SCT030
      TEMPO 1307/1311 2SM BR
     FM131100 04011KT 6SM HZ OVC025=



000
FTUS44 KHGX 121132
TAFUTS
TAF
KUTS 121132Z 1212/1312 22007KT P6SM SKC
      TEMPO 1212/1215 5SM BR
     FM122100 VRB03KT P6SM SKC
     FM130300 02003KT P6SM SKC=



000
FTUS44 KHGX 121132
TAFCLL
TAF
KCLL 121132Z 1212/1312 22006KT P6SM SKC
      TEMPO 1212/1215 5SM BR
     FM122000 35008KT P6SM SKC
     FM130900 03007KT P6SM BKN030=



000
FTUS44 KHGX 121132
TAFCXO
TAF
KCXO 121132Z 1212/1312 24004KT P6SM SKC
      TEMPO 1212/1214 5SM BR
     FM122200 VRB03KT P6SM SKC
     FM130600 02003KT P6SM BKN020
     FM130900 04004KT P6SM OVC025=



000
FTUS44 KHGX 121132
TAFIAH
TAF
KIAH 121132Z 1212/1318 22005KT P6SM MIFG SKC
      TEMPO 1212/1215 3SM BR
     FM121500 25007KT P6SM SKC
     FM122200 VRB04KT P6SM SKC
     FM130500 03004KT P6SM SCT025
      TEMPO 1310/1314 BKN025
     FM131400 08007KT P6SM OVC025=



000
FTUS44 KHGX 121132
TAFHOU
TAF
KHOU 121132Z 1212/1312 00000KT 1SM BR SKC
      TEMPO 1212/1215 1/4SM FG
     FM121500 25009KT P6SM SKC
     FM122300 VRB04KT P6SM SKC
     FM130600 07004KT P6SM OVC025=



000
FTUS44 KHGX 121132
TAFSGR
TAF
KSGR 121132Z 1212/1312 00000KT 1SM BR SKC
      TEMPO 1212/1215 1/4SM FG
     FM121500 25009KT P6SM SKC
     FM130200 VRB04KT P6SM MIFG SKC
     FM130600 04005KT P6SM OVC015=



000
FTUS44 KHGX 121132
TAFGLS
TAF
KGLS 121132Z 1212/1312 22009KT P6SM SKC
     FM130700 VRB05KT P6SM MIFG SCT030
      TEMPO 1307/1311 2SM BR
     FM131100 04011KT 6SM HZ OVC025=



000
FTUS44 KHGX 121132
TAFLBX
TAF
KLBX 121132Z 1212/1312 21003KT 1/2SM FG SKC
      TEMPO 1212/1213 1/4SM FG
     FM121500 22011KT P6SM SKC
     FM130300 VRB04KT P6SM MIFG SCT025
     FM130900 35006KT P6SM OVC012=



000
FTUS44 KHGX 121132
TAFCLL
TAF
KCLL 121132Z 1212/1312 22006KT P6SM SKC
      TEMPO 1212/1215 5SM BR
     FM122000 35008KT P6SM SKC
     FM130900 03007KT P6SM BKN030=



000
FTUS44 KHGX 121132
TAFHOU
TAF
KHOU 121132Z 1212/1312 00000KT 1SM BR SKC
      TEMPO 1212/1215 1/4SM FG
     FM121500 25009KT P6SM SKC
     FM122300 VRB04KT P6SM SKC
     FM130600 07004KT P6SM OVC025=



000
FTUS44 KHGX 121132
TAFSGR
TAF
KSGR 121132Z 1212/1312 00000KT 1SM BR SKC
      TEMPO 1212/1215 1/4SM FG
     FM121500 25009KT P6SM SKC
     FM130200 VRB04KT P6SM MIFG SKC
     FM130600 04005KT P6SM OVC015=



000
FTUS44 KHGX 121132
TAFGLS
TAF
KGLS 121132Z 1212/1312 22009KT P6SM SKC
     FM130700 VRB05KT P6SM MIFG SCT030
      TEMPO 1307/1311 2SM BR
     FM131100 04011KT 6SM HZ OVC025=



000
FTUS44 KHGX 121053 AAB
TAFHOU
TAF AMD
KHOU 121053Z 1211/1306 21006KT 1SM BR SKC
      TEMPO 1211/1215 1/2SM FG
     FM121600 25009KT P6SM SCT012
     FM130100 VRB04KT P6SM SCT030=



000
FTUS44 KHGX 121041 AAA
TAFSGR
TAF AMD
KSGR 121041Z 1211/1306 21003KT 1SM BR BKN020
      TEMPO 1211/1215 1/4SM FG
     FM121600 25009KT P6SM SCT012
     FM130100 VRB04KT P6SM SCT030=



000
FTUS44 KHGX 121041 AAA
TAFSGR
TAF AMD
KSGR 121041Z 1211/1306 21003KT 1SM BR BKN020
      TEMPO 1211/1215 1/4SM FG
     FM121600 25009KT P6SM SCT012
     FM130100 VRB04KT P6SM SCT030=



000
FTUS44 KHGX 121036 AAB
TAFLBX
TAF AMD
KLBX 121036Z 1211/1306 20005KT 1SM BR BKN025
      TEMPO 1211/1213 1/4SM FG
     FM121600 22011KT P6SM SCT015
     FM130000 VRB04KT P6SM SCT030=



000
FTUS44 KHGX 120900 AAA
TAFLBX
TAF AMD
KLBX 120900Z 1209/1306 20005KT 3SM BR FEW022
      TEMPO 1209/1213 1SM BR BKN015
     FM121600 22011KT P6SM SCT015
     FM130000 VRB04KT P6SM SCT030=



000
FTUS44 KHGX 120900 AAA
TAFGLS
TAF AMD
KGLS 120900Z 1209/1306 21008KT P6SM SKC
      TEMPO 1211/1215 1SM BR BKN015
     FM121600 21011KT P6SM SCT015
     FM130300 19007KT 6SM BR SCT030=



000
FTUS44 KHGX 120900 AAA
TAFIAH
TAF AMD
KIAH 120900Z 1209/1312 23004KT P6SM SKC
      TEMPO 1211/1215 3SM BR SCT003
     FM121600 25007KT P6SM SCT012
     FM130000 VRB04KT P6SM SCT030
     FM130900 06006KT P6SM SCT025=



000
FTUS44 KHGX 120900 AAA
TAFHOU
TAF AMD
KHOU 120900Z 1209/1306 21006KT P6SM SKC
      TEMPO 1211/1215 3SM BR SCT003
     FM121600 25009KT P6SM SCT012
     FM130100 VRB04KT P6SM SCT030=



000
FTUS44 KHGX 120900 AAA
TAFIAH
TAF AMD
KIAH 120900Z 1209/1312 23004KT P6SM SKC
      TEMPO 1211/1215 3SM BR SCT003
     FM121600 25007KT P6SM SCT012
     FM130000 VRB04KT P6SM SCT030
     FM130900 06006KT P6SM SCT025=



000
FTUS44 KHGX 120900 AAA
TAFLBX
TAF AMD
KLBX 120900Z 1209/1306 20005KT 3SM BR FEW022
      TEMPO 1209/1213 1SM BR BKN015
     FM121600 22011KT P6SM SCT015
     FM130000 VRB04KT P6SM SCT030=



000
FTUS44 KHGX 120900 AAA
TAFGLS
TAF AMD
KGLS 120900Z 1209/1306 21008KT P6SM SKC
      TEMPO 1211/1215 1SM BR BKN015
     FM121600 21011KT P6SM SCT015
     FM130300 19007KT 6SM BR SCT030=



000
FTUS44 KHGX 120900 AAA
TAFHOU
TAF AMD
KHOU 120900Z 1209/1306 21006KT P6SM SKC
      TEMPO 1211/1215 3SM BR SCT003
     FM121600 25009KT P6SM SCT012
     FM130100 VRB04KT P6SM SCT030=



000
FTUS44 KHGX 120533
TAFHOU
TAF
KHOU 120533Z 1206/1306 19007KT P6SM SKC
     FM120900 22003KT 6SM MIFG SCT005
      TEMPO 1211/1215 3SM BR SCT003
     FM121600 25009KT P6SM SCT012
     FM130100 VRB04KT P6SM SCT030=



000
FTUS44 KHGX 120533
TAFCLL
TAF
KCLL 120533Z 1206/1306 19008KT P6SM SKC
     FM121200 22003KT 6SM MIFG FEW005
      TEMPO 1212/1215 3SM BR SCT005
     FM121600 25008KT P6SM SCT012
     FM122000 35008KT P6SM FEW030=



000
FTUS44 KHGX 120533
TAFCLL
TAF
KCLL 120533Z 1206/1306 19008KT P6SM SKC
     FM121200 22003KT 6SM MIFG FEW005
      TEMPO 1212/1215 3SM BR SCT005
     FM121600 25008KT P6SM SCT012
     FM122000 35008KT P6SM FEW030=



000
FTUS44 KHGX 120533
TAFHOU
TAF
KHOU 120533Z 1206/1306 19007KT P6SM SKC
     FM120900 22003KT 6SM MIFG SCT005
      TEMPO 1211/1215 3SM BR SCT003
     FM121600 25009KT P6SM SCT012
     FM130100 VRB04KT P6SM SCT030=



000
FTUS44 KHGX 120533
TAFCXO
TAF
KCXO 120533Z 1206/1306 20007KT P6SM SKC
     FM120900 22003KT 6SM MIFG FEW005
      TEMPO 1211/1215 3SM BR SCT003
     FM121600 25008KT P6SM SCT012
     FM122200 VRB03KT P6SM SCT030=



000
FTUS44 KHGX 120533
TAFSGR
TAF
KSGR 120533Z 1206/1306 19006KT P6SM SKC
     FM120900 22003KT 6SM MIFG SCT005
      TEMPO 1211/1215 3SM BR SCT003
     FM121600 25009KT P6SM SCT012
     FM130100 VRB04KT P6SM SCT030=



000
FTUS44 KHGX 120533
TAFIAH
TAF
KIAH 120533Z 1206/1312 20005KT P6SM SKC
     FM120900 22003KT 6SM MIFG SCT007
      TEMPO 1211/1215 3SM BR SCT003
     FM121600 25007KT P6SM SCT012
     FM130000 VRB04KT P6SM SCT030
     FM130900 06006KT P6SM SCT025=



000
FTUS44 KHGX 120533
TAFUTS
TAF
KUTS 120533Z 1206/1306 19010KT P6SM SKC
     FM121200 22003KT 6SM MIFG FEW005
      TEMPO 1212/1215 3SM BR SCT005
     FM121600 25008KT P6SM SCT012
     FM122000 VRB03KT P6SM FEW030=



000
FTUS44 KHGX 120533
TAFHOU
TAF
KHOU 120533Z 1206/1306 19007KT P6SM SKC
     FM120900 22003KT 6SM MIFG SCT005
      TEMPO 1211/1215 3SM BR SCT003
     FM121600 25009KT P6SM SCT012
     FM130100 VRB04KT P6SM SCT030=



000
FTUS44 KHGX 120533
TAFIAH
TAF
KIAH 120533Z 1206/1312 20005KT P6SM SKC
     FM120900 22003KT 6SM MIFG SCT007
      TEMPO 1211/1215 3SM BR SCT003
     FM121600 25007KT P6SM SCT012
     FM130000 VRB04KT P6SM SCT030
     FM130900 06006KT P6SM SCT025=



000
FTUS44 KHGX 120533
TAFLBX
TAF
KLBX 120533Z 1206/1306 20005KT P6SM SKC
     FM120900 20004KT 4SM MIFG SCT015
      TEMPO 1211/1215 1SM BR BKN015
     FM121600 22011KT P6SM SCT015
     FM130000 VRB04KT P6SM SCT030=



000
FTUS44 KHGX 120533
TAFGLS
TAF
KGLS 120533Z 1206/1306 20007KT P6SM SKC
     FM120900 19006KT 4SM MIFG SCT015
      TEMPO 1211/1215 1SM BR BKN015
     FM121600 21011KT P6SM SCT015
     FM130300 19007KT 6SM BR SCT030=



000
FTUS44 KHGX 120533
TAFCXO
TAF
KCXO 120533Z 1206/1306 20007KT P6SM SKC
     FM120900 22003KT 6SM MIFG FEW005
      TEMPO 1211/1215 3SM BR SCT003
     FM121600 25008KT P6SM SCT012
     FM122200 VRB03KT P6SM SCT030=



000
FTUS44 KHGX 120533
TAFUTS
TAF
KUTS 120533Z 1206/1306 19010KT P6SM SKC
     FM121200 22003KT 6SM MIFG FEW005
      TEMPO 1212/1215 3SM BR SCT005
     FM121600 25008KT P6SM SCT012
     FM122000 VRB03KT P6SM FEW030=



000
FTUS44 KHGX 120533
TAFIAH
TAF
KIAH 120533Z 1206/1312 20005KT P6SM SKC
     FM120900 22003KT 6SM MIFG SCT007
      TEMPO 1211/1215 3SM BR SCT003
     FM121600 25007KT P6SM SCT012
     FM130000 VRB04KT P6SM SCT030
     FM130900 06006KT P6SM SCT025=



000
FTUS44 KHGX 120533
TAFSGR
TAF
KSGR 120533Z 1206/1306 19006KT P6SM SKC
     FM120900 22003KT 6SM MIFG SCT005
      TEMPO 1211/1215 3SM BR SCT003
     FM121600 25009KT P6SM SCT012
     FM130100 VRB04KT P6SM SCT030=



000
FTUS44 KHGX 120533
TAFCLL
TAF
KCLL 120533Z 1206/1306 19008KT P6SM SKC
     FM121200 22003KT 6SM MIFG FEW005
      TEMPO 1212/1215 3SM BR SCT005
     FM121600 25008KT P6SM SCT012
     FM122000 35008KT P6SM FEW030=



000
FTUS44 KHGX 120533
TAFCXO
TAF
KCXO 120533Z 1206/1306 20007KT P6SM SKC
     FM120900 22003KT 6SM MIFG FEW005
      TEMPO 1211/1215 3SM BR SCT003
     FM121600 25008KT P6SM SCT012
     FM122200 VRB03KT P6SM SCT030=



000
FTUS44 KHGX 120533
TAFGLS
TAF
KGLS 120533Z 1206/1306 20007KT P6SM SKC
     FM120900 19006KT 4SM MIFG SCT015
      TEMPO 1211/1215 1SM BR BKN015
     FM121600 21011KT P6SM SCT015
     FM130300 19007KT 6SM BR SCT030=



000
FTUS44 KHGX 120533
TAFGLS
TAF
KGLS 120533Z 1206/1306 20007KT P6SM SKC
     FM120900 19006KT 4SM MIFG SCT015
      TEMPO 1211/1215 1SM BR BKN015
     FM121600 21011KT P6SM SCT015
     FM130300 19007KT 6SM BR SCT030=



000
FTUS44 KHGX 120533
TAFLBX
TAF
KLBX 120533Z 1206/1306 20005KT P6SM SKC
     FM120900 20004KT 4SM MIFG SCT015
      TEMPO 1211/1215 1SM BR BKN015
     FM121600 22011KT P6SM SCT015
     FM130000 VRB04KT P6SM SCT030=



000
FTUS44 KHGX 120533
TAFSGR
TAF
KSGR 120533Z 1206/1306 19006KT P6SM SKC
     FM120900 22003KT 6SM MIFG SCT005
      TEMPO 1211/1215 3SM BR SCT003
     FM121600 25009KT P6SM SCT012
     FM130100 VRB04KT P6SM SCT030=



000
FTUS44 KHGX 120533
TAFLBX
TAF
KLBX 120533Z 1206/1306 20005KT P6SM SKC
     FM120900 20004KT 4SM MIFG SCT015
      TEMPO 1211/1215 1SM BR BKN015
     FM121600 22011KT P6SM SCT015
     FM130000 VRB04KT P6SM SCT030=



000
FTUS44 KHGX 120533
TAFUTS
TAF
KUTS 120533Z 1206/1306 19010KT P6SM SKC
     FM121200 22003KT 6SM MIFG FEW005
      TEMPO 1212/1215 3SM BR SCT005
     FM121600 25008KT P6SM SCT012
     FM122000 VRB03KT P6SM FEW030=



000
FTUS44 KHGX 120259 AAA
TAFCXO
TAF AMD
KCXO 120259Z 1203/1224 20005KT P6SM SKC
     FM120900 22003KT 6SM MIFG SCT005
      TEMPO 1211/1215 2SM BR SCT003
     FM121600 25008KT P6SM FEW020
     FM122200 35005KT P6SM FEW030=



000
FTUS44 KHGX 120259 AAA
TAFCLL
TAF AMD
KCLL 120259Z 1203/1224 18010KT P6SM SKC
     FM120600 20005KT P6SM SKC
     FM120900 22003KT 6SM MIFG SCT005
      TEMPO 1211/1215 3SM BR SCT005
     FM121600 25008KT P6SM FEW020
     FM122000 35009KT P6SM FEW030=



000
FTUS44 KHGX 120259 AAA
TAFSGR
TAF AMD
KSGR 120259Z 1203/1224 19005KT P6SM SKC
     FM120900 22003KT 6SM MIFG SCT005
      TEMPO 1211/1215 2SM BR SCT003
     FM121600 25008KT P6SM FEW020=



000
FTUS44 KHGX 120259 AAA
TAFIAH
TAF AMD
KIAH 120259Z 1203/1306 20007KT P6SM SKC
     FM120900 22003KT 6SM MIFG SCT007
      TEMPO 1211/1215 3SM BR SCT003
     FM121600 25008KT P6SM FEW020
     FM130000 35005KT P6SM SCT030=



000
FTUS44 KHGX 120259 AAA
TAFUTS
TAF AMD
KUTS 120259Z 1203/1224 18010KT P6SM SKC
     FM120600 20005KT P6SM SKC
     FM120900 22003KT 6SM MIFG SCT005
      TEMPO 1211/1215 3SM BR SCT005
     FM121600 25008KT P6SM FEW020
     FM122000 35009KT P6SM FEW030=



000
FTUS44 KHGX 120259 AAA
TAFLBX
TAF AMD
KLBX 120259Z 1203/1224 18005KT P6SM SKC
     FM120900 20004KT 4SM BR SCT007
      TEMPO 1211/1215 1SM BR BKN003
     FM121630 22011KT P6SM FEW020=



000
FTUS44 KHGX 120259 AAA
TAFHOU
TAF AMD
KHOU 120259Z 1203/1224 19005KT P6SM SKC
     FM120900 22003KT 6SM MIFG SCT005
      TEMPO 1211/1215 2SM BR SCT003
     FM121600 25008KT P6SM FEW020=



000
FTUS44 KHGX 120259 AAB
TAFGLS
TAF AMD
KGLS 120259Z 1203/1224 20007KT P6SM SKC
     FM120900 19006KT 4SM BR SCT007
      TEMPO 1211/1215 1SM BR BKN003
     FM121630 21011KT P6SM FEW020=



000
FTUS44 KHGX 120259 AAA
TAFIAH
TAF AMD
KIAH 120259Z 1203/1306 20007KT P6SM SKC
     FM120900 22003KT 6SM MIFG SCT007
      TEMPO 1211/1215 3SM BR SCT003
     FM121600 25008KT P6SM FEW020
     FM130000 35005KT P6SM SCT030=



000
FTUS44 KHGX 120259 AAB
TAFGLS
TAF AMD
KGLS 120259Z 1203/1224 20007KT P6SM SKC
     FM120900 19006KT 4SM BR SCT007
      TEMPO 1211/1215 1SM BR BKN003
     FM121630 21011KT P6SM FEW020=



000
FTUS44 KHGX 120259 AAA
TAFSGR
TAF AMD
KSGR 120259Z 1203/1224 19005KT P6SM SKC
     FM120900 22003KT 6SM MIFG SCT005
      TEMPO 1211/1215 2SM BR SCT003
     FM121600 25008KT P6SM FEW020=



000
FTUS44 KHGX 120259 AAA
TAFHOU
TAF AMD
KHOU 120259Z 1203/1224 19005KT P6SM SKC
     FM120900 22003KT 6SM MIFG SCT005
      TEMPO 1211/1215 2SM BR SCT003
     FM121600 25008KT P6SM FEW020=



000
FTUS44 KHGX 120259 AAA
TAFUTS
TAF AMD
KUTS 120259Z 1203/1224 18010KT P6SM SKC
     FM120600 20005KT P6SM SKC
     FM120900 22003KT 6SM MIFG SCT005
      TEMPO 1211/1215 3SM BR SCT005
     FM121600 25008KT P6SM FEW020
     FM122000 35009KT P6SM FEW030=



000
FTUS44 KHGX 120259 AAA
TAFCLL
TAF AMD
KCLL 120259Z 1203/1224 18010KT P6SM SKC
     FM120600 20005KT P6SM SKC
     FM120900 22003KT 6SM MIFG SCT005
      TEMPO 1211/1215 3SM BR SCT005
     FM121600 25008KT P6SM FEW020
     FM122000 35009KT P6SM FEW030=



000
FTUS44 KHGX 120259 AAA
TAFLBX
TAF AMD
KLBX 120259Z 1203/1224 18005KT P6SM SKC
     FM120900 20004KT 4SM BR SCT007
      TEMPO 1211/1215 1SM BR BKN003
     FM121630 22011KT P6SM FEW020=



000
FTUS44 KHGX 120259 AAA
TAFSGR
TAF AMD
KSGR 120259Z 1203/1224 19005KT P6SM SKC
     FM120900 22003KT 6SM MIFG SCT005
      TEMPO 1211/1215 2SM BR SCT003
     FM121600 25008KT P6SM FEW020=



000
FTUS44 KHGX 120259 AAA
TAFUTS
TAF AMD
KUTS 120259Z 1203/1224 18010KT P6SM SKC
     FM120600 20005KT P6SM SKC
     FM120900 22003KT 6SM MIFG SCT005
      TEMPO 1211/1215 3SM BR SCT005
     FM121600 25008KT P6SM FEW020
     FM122000 35009KT P6SM FEW030=



000
FTUS44 KHGX 120259 AAB
TAFGLS
TAF AMD
KGLS 120259Z 1203/1224 20007KT P6SM SKC
     FM120900 19006KT 4SM BR SCT007
      TEMPO 1211/1215 1SM BR BKN003
     FM121630 21011KT P6SM FEW020=



000
FTUS44 KHGX 120259 AAA
TAFCXO
TAF AMD
KCXO 120259Z 1203/1224 20005KT P6SM SKC
     FM120900 22003KT 6SM MIFG SCT005
      TEMPO 1211/1215 2SM BR SCT003
     FM121600 25008KT P6SM FEW020
     FM122200 35005KT P6SM FEW030=



000
FTUS44 KHGX 120259 AAA
TAFCXO
TAF AMD
KCXO 120259Z 1203/1224 20005KT P6SM SKC
     FM120900 22003KT 6SM MIFG SCT005
      TEMPO 1211/1215 2SM BR SCT003
     FM121600 25008KT P6SM FEW020
     FM122200 35005KT P6SM FEW030=



000
FTUS44 KHGX 120259 AAA
TAFLBX
TAF AMD
KLBX 120259Z 1203/1224 18005KT P6SM SKC
     FM120900 20004KT 4SM BR SCT007
      TEMPO 1211/1215 1SM BR BKN003
     FM121630 22011KT P6SM FEW020=



000
FTUS44 KHGX 120259 AAA
TAFIAH
TAF AMD
KIAH 120259Z 1203/1306 20007KT P6SM SKC
     FM120900 22003KT 6SM MIFG SCT007
      TEMPO 1211/1215 3SM BR SCT003
     FM121600 25008KT P6SM FEW020
     FM130000 35005KT P6SM SCT030=



000
FTUS44 KHGX 120259 AAA
TAFCLL
TAF AMD
KCLL 120259Z 1203/1224 18010KT P6SM SKC
     FM120600 20005KT P6SM SKC
     FM120900 22003KT 6SM MIFG SCT005
      TEMPO 1211/1215 3SM BR SCT005
     FM121600 25008KT P6SM FEW020
     FM122000 35009KT P6SM FEW030=



000
FTUS44 KHGX 120259 AAA
TAFHOU
TAF AMD
KHOU 120259Z 1203/1224 19005KT P6SM SKC
     FM120900 22003KT 6SM MIFG SCT005
      TEMPO 1211/1215 2SM BR SCT003
     FM121600 25008KT P6SM FEW020=



000
FTUS44 KHGX 120107 AAA
TAFGLS
TAF AMD
KGLS 120107Z 1201/1224 20009KT P6SM SKC
     FM120900 19006KT 4SM BR SCT007
      TEMPO 1211/1215 1SM BR BKN003
     FM121630 21011KT P6SM FEW020=



000
FTUS44 KHGX 120107 AAA
TAFGLS
TAF AMD
KGLS 120107Z 1201/1224 20009KT P6SM SKC
     FM120900 19006KT 4SM BR SCT007
      TEMPO 1211/1215 1SM BR BKN003
     FM121630 21011KT P6SM FEW020=



000
FTUS44 KHGX 120107 AAA
TAFGLS
TAF AMD
KGLS 120107Z 1201/1224 20009KT P6SM SKC
     FM120900 19006KT 4SM BR SCT007
      TEMPO 1211/1215 1SM BR BKN003
     FM121630 21011KT P6SM FEW020=



000
FTUS44 KHGX 112353 CCA
TAFCXO
TAF COR
KCXO 112353Z 1200/1224 21013KT P6SM SKC
     FM120100 20005KT P6SM SKC
     FM120900 22003KT 6SM MIFG SCT005
      TEMPO 1211/1215 2SM BR SCT003
     FM121600 25008KT P6SM FEW020
     FM122200 35005KT P6SM FEW030=



000
FTUS44 KHGX 112352 CCA
TAFUTS
TAF COR
KUTS 112352Z 1200/1224 20008KT P6SM SKC
     FM120100 20005KT P6SM SKC
     FM120900 22003KT 6SM MIFG SCT005
      TEMPO 1211/1215 3SM BR SCT005
     FM121600 25008KT P6SM FEW020
     FM122000 35009KT P6SM FEW030=



000
FTUS44 KHGX 112352 CCA
TAFCLL
TAF COR
KCLL 112352Z 1200/1224 20010KT P6SM SKC
     FM120600 20005KT P6SM SKC
     FM120900 22003KT 6SM MIFG SCT005
      TEMPO 1211/1215 3SM BR SCT005
     FM121600 25008KT P6SM FEW020
     FM122000 35009KT P6SM FEW030=



000
FTUS44 KHGX 112332
TAFCXO
TAF
KCXO 112332Z 1200/1224 21013KT P6SM SKC
     FM120100 20005KT P6SM SKC
     FM120900 22003KT 6SM MIFG SCT005
      TEMPO 1211/1215 2SM BR SCT003
     FM121600 25008KT P6SM FEW020=



000
FTUS44 KHGX 112332
TAFLBX
TAF
KLBX 112332Z 1200/1224 21010KT P6SM SKC
     FM120200 19005KT P6SM SKC
     FM120900 20004KT 4SM BR SCT007
      TEMPO 1211/1215 1SM BR BKN003
     FM121630 22011KT P6SM FEW020=



000
FTUS44 KHGX 112332
TAFCLL
TAF
KCLL 112332Z 1200/1224 20010KT P6SM SKC
     FM120600 20005KT P6SM SKC
     FM120900 22003KT 6SM MIFG SCT005
      TEMPO 1211/1215 3SM BR SCT005
     FM121600 25008KT P6SM FEW020=



000
FTUS44 KHGX 112332
TAFHOU
TAF
KHOU 112332Z 1200/1224 20014KT P6SM FEW250
     FM120200 20005KT P6SM SKC
     FM120900 22003KT 6SM MIFG SCT005
      TEMPO 1211/1215 2SM BR SCT003
     FM121600 25008KT P6SM FEW020=



000
FTUS44 KHGX 112332
TAFSGR
TAF
KSGR 112332Z 1200/1224 21015KT P6SM SKC
     FM120200 20005KT P6SM SKC
     FM120900 22003KT 6SM MIFG SCT005
      TEMPO 1211/1215 2SM BR SCT003
     FM121600 25008KT P6SM FEW020=



000
FTUS44 KHGX 112332
TAFIAH
TAF
KIAH 112332Z 1200/1306 22010KT P6SM FEW250
     FM120100 20005KT P6SM SKC
     FM120900 22003KT 6SM MIFG SCT007
      TEMPO 1211/1215 3SM BR SCT003
     FM121600 25008KT P6SM FEW020
     FM130000 35005KT P6SM SCT030=



000
FTUS44 KHGX 112332
TAFUTS
TAF
KUTS 112332Z 1200/1224 20008KT P6SM SKC
     FM120100 20005KT P6SM SKC
     FM120900 22003KT 6SM MIFG SCT005
      TEMPO 1211/1215 3SM BR SCT005
     FM121600 25008KT P6SM FEW020=



000
FTUS44 KHGX 112332
TAFSGR
TAF
KSGR 112332Z 1200/1224 21015KT P6SM SKC
     FM120200 20005KT P6SM SKC
     FM120900 22003KT 6SM MIFG SCT005
      TEMPO 1211/1215 2SM BR SCT003
     FM121600 25008KT P6SM FEW020=



000
FTUS44 KHGX 112332
TAFGLS
TAF
KGLS 112332Z 1200/1224 22015KT P6SM SKC
     FM120300 19010KT P6SM SKC
     FM120900 19006KT 4SM BR SCT007
      TEMPO 1211/1215 1SM BR BKN003
     FM121630 21011KT P6SM FEW020=



000
FTUS44 KHGX 112332
TAFUTS
TAF
KUTS 112332Z 1200/1224 20008KT P6SM SKC
     FM120100 20005KT P6SM SKC
     FM120900 22003KT 6SM MIFG SCT005
      TEMPO 1211/1215 3SM BR SCT005
     FM121600 25008KT P6SM FEW020=



000
FTUS44 KHGX 112332
TAFCLL
TAF
KCLL 112332Z 1200/1224 20010KT P6SM SKC
     FM120600 20005KT P6SM SKC
     FM120900 22003KT 6SM MIFG SCT005
      TEMPO 1211/1215 3SM BR SCT005
     FM121600 25008KT P6SM FEW020=



000
FTUS44 KHGX 112332
TAFHOU
TAF
KHOU 112332Z 1200/1224 20014KT P6SM FEW250
     FM120200 20005KT P6SM SKC
     FM120900 22003KT 6SM MIFG SCT005
      TEMPO 1211/1215 2SM BR SCT003
     FM121600 25008KT P6SM FEW020=



000
FTUS44 KHGX 112332
TAFIAH
TAF
KIAH 112332Z 1200/1306 22010KT P6SM FEW250
     FM120100 20005KT P6SM SKC
     FM120900 22003KT 6SM MIFG SCT007
      TEMPO 1211/1215 3SM BR SCT003
     FM121600 25008KT P6SM FEW020
     FM130000 35005KT P6SM SCT030=



000
FTUS44 KHGX 112332
TAFGLS
TAF
KGLS 112332Z 1200/1224 22015KT P6SM SKC
     FM120300 19010KT P6SM SKC
     FM120900 19006KT 4SM BR SCT007
      TEMPO 1211/1215 1SM BR BKN003
     FM121630 21011KT P6SM FEW020=



000
FTUS44 KHGX 112332
TAFLBX
TAF
KLBX 112332Z 1200/1224 21010KT P6SM SKC
     FM120200 19005KT P6SM SKC
     FM120900 20004KT 4SM BR SCT007
      TEMPO 1211/1215 1SM BR BKN003
     FM121630 22011KT P6SM FEW020=



000
FTUS44 KHGX 112332
TAFCXO
TAF
KCXO 112332Z 1200/1224 21013KT P6SM SKC
     FM120100 20005KT P6SM SKC
     FM120900 22003KT 6SM MIFG SCT005
      TEMPO 1211/1215 2SM BR SCT003
     FM121600 25008KT P6SM FEW020=



000
FTUS44 KHGX 112332
TAFIAH
TAF
KIAH 112332Z 1200/1306 22010KT P6SM FEW250
     FM120100 20005KT P6SM SKC
     FM120900 22003KT 6SM MIFG SCT007
      TEMPO 1211/1215 3SM BR SCT003
     FM121600 25008KT P6SM FEW020
     FM130000 35005KT P6SM SCT030=



000
FTUS44 KHGX 112332
TAFHOU
TAF
KHOU 112332Z 1200/1224 20014KT P6SM FEW250
     FM120200 20005KT P6SM SKC
     FM120900 22003KT 6SM MIFG SCT005
      TEMPO 1211/1215 2SM BR SCT003
     FM121600 25008KT P6SM FEW020=



000
FTUS44 KHGX 112332
TAFCLL
TAF
KCLL 112332Z 1200/1224 20010KT P6SM SKC
     FM120600 20005KT P6SM SKC
     FM120900 22003KT 6SM MIFG SCT005
      TEMPO 1211/1215 3SM BR SCT005
     FM121600 25008KT P6SM FEW020=



000
FTUS44 KHGX 112332
TAFUTS
TAF
KUTS 112332Z 1200/1224 20008KT P6SM SKC
     FM120100 20005KT P6SM SKC
     FM120900 22003KT 6SM MIFG SCT005
      TEMPO 1211/1215 3SM BR SCT005
     FM121600 25008KT P6SM FEW020=



000
FTUS44 KHGX 112332
TAFGLS
TAF
KGLS 112332Z 1200/1224 22015KT P6SM SKC
     FM120300 19010KT P6SM SKC
     FM120900 19006KT 4SM BR SCT007
      TEMPO 1211/1215 1SM BR BKN003
     FM121630 21011KT P6SM FEW020=



000
FTUS44 KHGX 112332
TAFSGR
TAF
KSGR 112332Z 1200/1224 21015KT P6SM SKC
     FM120200 20005KT P6SM SKC
     FM120900 22003KT 6SM MIFG SCT005
      TEMPO 1211/1215 2SM BR SCT003
     FM121600 25008KT P6SM FEW020=



000
FTUS44 KHGX 112332
TAFLBX
TAF
KLBX 112332Z 1200/1224 21010KT P6SM SKC
     FM120200 19005KT P6SM SKC
     FM120900 20004KT 4SM BR SCT007
      TEMPO 1211/1215 1SM BR BKN003
     FM121630 22011KT P6SM FEW020=



000
FTUS44 KHGX 112121 AAA
TAFIAH
TAF AMD
KIAH 112121Z 1121/1224 23010G17KT P6SM FEW250
     FM120000 19007KT P6SM SKC
     FM120600 20005KT P6SM SKC
     FM120900 22003KT P6SM MIFG SCT007
      TEMPO 1211/1215 3SM BR SCT003
     FM121600 24006KT P6SM FEW020
     FM121800 27008KT P6SM SKC=



000
FTUS44 KHGX 112121 AAA
TAFHOU
TAF AMD
KHOU 112121Z 1121/1218 22014G24KT P6SM FEW250
     FM120000 20009KT P6SM SKC
     FM120900 21003KT 6SM BR SCT005
      TEMPO 1211/1215 2SM BR SCT003
     FM121600 24006KT P6SM FEW020=



000
FTUS44 KHGX 112119 AAA
TAFSGR
TAF AMD
KSGR 112119Z 1121/1218 20013G23KT P6SM SKC
     FM120000 20008KT P6SM SKC
     FM120900 21003KT 6SM BR SCT005
      TEMPO 1211/1215 2SM BR SCT003
     FM121630 24006KT P6SM FEW020=



000
FTUS44 KHGX 112118 AAA
TAFCLL
TAF AMD
KCLL 112118Z 1121/1218 21014G24KT P6SM SKC
     FM120000 18007KT P6SM SKC
     FM120900 21004KT P6SM MIFG SKC
      TEMPO 1211/1215 3SM BR SCT007
     FM121600 29007KT P6SM FEW250=



000
FTUS44 KHGX 111720
TAFHOU
TAF
KHOU 111720Z 1118/1218 23013G23KT P6SM SKC
     FM120000 20008KT P6SM SKC
     FM120900 21003KT 6SM BR SCT005
      TEMPO 1211/1215 2SM BR SCT003
     FM121600 24006KT P6SM FEW020=



000
FTUS44 KHGX 111720
TAFGLS
TAF
KGLS 111720Z 1118/1218 22012G23KT P6SM SKC
     FM120100 19008KT P6SM SKC
     FM120900 19006KT 4SM BR SCT007
      TEMPO 1211/1215 1SM BR SCT003
     FM121630 21008KT P6SM FEW020=



000
FTUS44 KHGX 111720
TAFLBX
TAF
KLBX 111720Z 1118/1218 22012G22KT P6SM SKC
     FM120000 18008KT P6SM SKC
     FM120900 20004KT 4SM BR SCT007
      TEMPO 1211/1215 1SM BR SCT003
     FM121630 22007KT P6SM FEW020=



000
FTUS44 KHGX 111720
TAFSGR
TAF
KSGR 111720Z 1118/1218 23013G23KT P6SM SKC
     FM120000 20008KT P6SM SKC
     FM120900 21003KT 6SM BR SCT005
      TEMPO 1211/1215 2SM BR SCT003
     FM121630 24006KT P6SM FEW020=



000
FTUS44 KHGX 111720
TAFGLS
TAF
KGLS 111720Z 1118/1218 22012G23KT P6SM SKC
     FM120100 19008KT P6SM SKC
     FM120900 19006KT 4SM BR SCT007
      TEMPO 1211/1215 1SM BR SCT003
     FM121630 21008KT P6SM FEW020=



000
FTUS44 KHGX 111720
TAFLBX
TAF
KLBX 111720Z 1118/1218 22012G22KT P6SM SKC
     FM120000 18008KT P6SM SKC
     FM120900 20004KT 4SM BR SCT007
      TEMPO 1211/1215 1SM BR SCT003
     FM121630 22007KT P6SM FEW020=



000
FTUS44 KHGX 111720
TAFUTS
TAF
KUTS 111720Z 1118/1218 22013G23KT P6SM SKC
     FM120000 18004KT P6SM SKC
     FM120900 21006KT P6SM MIFG SKC
      TEMPO 1211/1215 3SM BR SCT005
     FM121600 25006KT P6SM SKC=



000
FTUS44 KHGX 111720
TAFSGR
TAF
KSGR 111720Z 1118/1218 23013G23KT P6SM SKC
     FM120000 20008KT P6SM SKC
     FM120900 21003KT 6SM BR SCT005
      TEMPO 1211/1215 2SM BR SCT003
     FM121630 24006KT P6SM FEW020=



000
FTUS44 KHGX 111720
TAFIAH
TAF
KIAH 111720Z 1118/1224 24010G20KT P6SM SKC
     FM120000 19007KT P6SM SKC
     FM120600 20005KT P6SM SKC
     FM120900 22003KT P6SM MIFG SCT007
      TEMPO 1211/1215 3SM BR SCT003
     FM121600 24006KT P6SM FEW020
     FM121800 27008KT P6SM SKC=



000
FTUS44 KHGX 111720
TAFCLL
TAF
KCLL 111720Z 1118/1218 22014KT P6SM SKC
     FM120000 18007KT P6SM SKC
     FM120900 21004KT P6SM MIFG SKC
      TEMPO 1211/1215 3SM BR SCT007
     FM121600 29007KT P6SM FEW250=



000
FTUS44 KHGX 111720
TAFCXO
TAF
KCXO 111720Z 1118/1218 22013KT P6SM SKC
     FM120000 18007KT P6SM SKC
     FM120900 22004KT 5SM BR FEW007
     FM121100 23002KT 3SM BR SCT005
      TEMPO 1211/1215 2SM BR
     FM121600 24005KT P6SM FEW020=



000
FTUS44 KHGX 111720
TAFHOU
TAF
KHOU 111720Z 1118/1218 23013G23KT P6SM SKC
     FM120000 20008KT P6SM SKC
     FM120900 21003KT 6SM BR SCT005
      TEMPO 1211/1215 2SM BR SCT003
     FM121600 24006KT P6SM FEW020=



000
FTUS44 KHGX 111510 AAA
TAFUTS
TAF AMD
KUTS 111510Z 1115/1212 22012G22KT P6SM SKC
     FM120100 19006KT P6SM FEW300
     FM121100 22004KT 6SM BR SCT250=



000
FTUS44 KHGX 111510 AAA
TAFIAH
TAF AMD
KIAH 111510Z 1115/1218 23010G20KT P6SM SKC
     FM120100 20005KT P6SM FEW300
     FM120900 22004KT 6SM BR FEW007
     FM121400 25007KT P6SM SCT015=



000
FTUS44 KHGX 111510 AAA
TAFSGR
TAF AMD
KSGR 111510Z 1115/1212 23010G20KT P6SM SKC
     FM120100 19006KT P6SM FEW300
     FM120900 20004KT 3SM BR SCT007=



000
FTUS44 KHGX 111510 AAA
TAFHOU
TAF AMD
KHOU 111510Z 1115/1212 22012G22KT P6SM SKC
     FM120100 20005KT P6SM FEW300
     FM120900 22004KT 5SM BR SCT007=



000
FTUS44 KHGX 111120
TAFCLL
TAF
KCLL 111120Z 1112/1212 21007KT P6SM SKC
     FM111600 22013KT P6SM SKC
     FM120100 18007KT P6SM FEW300
     FM121100 21004KT P6SM SCT250=



000
FTUS44 KHGX 111120
TAFHOU
TAF
KHOU 111120Z 1112/1212 22007KT P6SM SKC
     FM111700 22014KT P6SM SKC
     FM120100 20005KT P6SM FEW300
     FM120900 22004KT 5SM BR SCT007=



000
FTUS44 KHGX 111120
TAFIAH
TAF
KIAH 111120Z 1112/1218 22008KT P6SM SKC
     FM111500 22012G19KT P6SM SKC
     FM120100 20005KT P6SM FEW300
     FM120900 22004KT 6SM BR FEW007
     FM121400 25007KT P6SM SCT015=



000
FTUS44 KHGX 111120
TAFCXO
TAF
KCXO 111120Z 1112/1212 22012KT P6SM SKC
     FM120100 18006KT P6SM FEW300
     FM120900 21003KT 4SM BR FEW007=



000
FTUS44 KHGX 111120
TAFGLS
TAF
KGLS 111120Z 1112/1212 22012KT P6SM SKC
     FM120300 20009KT 4SM BR SCT007=



000
FTUS44 KHGX 111120
TAFUTS
TAF
KUTS 111120Z 1112/1212 22011KT P6SM SKC
     FM120100 19006KT P6SM FEW300
     FM121100 22004KT 6SM BR SCT250=



000
FTUS44 KHGX 111120
TAFLBX
TAF
KLBX 111120Z 1112/1212 21009KT P6SM SKC
     FM111700 21015KT P6SM SKC
     FM120100 19005KT P6SM FEW300
     FM120900 20004KT 3SM BR SCT007=



000
FTUS44 KHGX 111120
TAFSGR
TAF
KSGR 111120Z 1112/1212 23007KT P6SM SKC
     FM111700 22014KT P6SM SKC
     FM120100 19006KT P6SM FEW300
     FM120900 20004KT 3SM BR SCT007=



000
FTUS44 KHGX 110856 AAA
TAFIAH
TAF AMD
KIAH 110856Z 1109/1212 22010KT P6SM SKC
     FM111700 22012KT P6SM SKC
     FM120100 19005KT P6SM FEW300
     FM120900 VRB03KT 6SM BR FEW007=



000
FTUS44 KHGX 110856 AAA
TAFIAH
TAF AMD
KIAH 110856Z 1109/1212 22010KT P6SM SKC
     FM111700 22012KT P6SM SKC
     FM120100 19005KT P6SM FEW300
     FM120900 VRB03KT 6SM BR FEW007=



000
FTUS44 KHGX 110856 AAA
TAFIAH
TAF AMD
KIAH 110856Z 1109/1212 22010KT P6SM SKC
     FM111700 22012KT P6SM SKC
     FM120100 19005KT P6SM FEW300
     FM120900 VRB03KT 6SM BR FEW007=



000
FTUS44 KHGX 110856 AAA
TAFHOU
TAF AMD
KHOU 110856Z 1109/1206 21007KT P6SM SKC
     FM111700 22014KT P6SM SKC
     FM120100 19005KT P6SM FEW300=



000
FTUS44 KHGX 110856 AAA
TAFHOU
TAF AMD
KHOU 110856Z 1109/1206 21007KT P6SM SKC
     FM111700 22014KT P6SM SKC
     FM120100 19005KT P6SM FEW300=



000
FTUS44 KHGX 110856 AAA
TAFHOU
TAF AMD
KHOU 110856Z 1109/1206 21007KT P6SM SKC
     FM111700 22014KT P6SM SKC
     FM120100 19005KT P6SM FEW300=



000
FTUS44 KHGX 110539
TAFCLL
TAF
KCLL 110539Z 1106/1206 19008KT P6SM SKC
     FM111600 22013KT P6SM SKC
     FM120100 18007KT P6SM FEW300=



000
FTUS44 KHGX 110539
TAFIAH
TAF
KIAH 110539Z 1106/1212 19007KT P6SM SKC
     FM111700 22012KT P6SM SKC
     FM120100 19005KT P6SM FEW300
     FM120900 VRB03KT 6SM BR FEW007=



000
FTUS44 KHGX 110539
TAFLBX
TAF
KLBX 110539Z 1106/1206 19007KT P6SM SKC
     FM111700 21015KT P6SM SKC
     FM120100 19005KT P6SM FEW300=



000
FTUS44 KHGX 110539
TAFCXO
TAF
KCXO 110539Z 1106/1206 21007KT P6SM SKC
     FM111600 22012KT P6SM SKC
     FM120100 18006KT P6SM FEW300=



000
FTUS44 KHGX 110539
TAFGLS
TAF
KGLS 110539Z 1106/1206 19010KT P6SM SKC
     FM110900 22012KT P6SM SKC
     FM120100 19009KT P6SM SKC=



000
FTUS44 KHGX 110539
TAFUTS
TAF
KUTS 110539Z 1106/1206 21011KT P6SM SKC
     FM120100 18006KT P6SM FEW300=



000
FTUS44 KHGX 110539
TAFCLL
TAF
KCLL 110539Z 1106/1206 19008KT P6SM SKC
     FM111600 22013KT P6SM SKC
     FM120100 18007KT P6SM FEW300=



000
FTUS44 KHGX 110539
TAFSGR
TAF
KSGR 110539Z 1106/1206 20008KT P6SM SKC
     FM111700 22014KT P6SM SKC
     FM120100 19005KT P6SM FEW300=



000
FTUS44 KHGX 110539
TAFGLS
TAF
KGLS 110539Z 1106/1206 19010KT P6SM SKC
     FM110900 22012KT P6SM SKC
     FM120100 19009KT P6SM SKC=



000
FTUS44 KHGX 110539
TAFHOU
TAF
KHOU 110539Z 1106/1206 19007KT P6SM SKC
     FM111700 22014KT P6SM SKC
     FM120100 19005KT P6SM FEW300=



000
FTUS44 KHGX 110539
TAFCXO
TAF
KCXO 110539Z 1106/1206 21007KT P6SM SKC
     FM111600 22012KT P6SM SKC
     FM120100 18006KT P6SM FEW300=



000
FTUS44 KHGX 110539
TAFUTS
TAF
KUTS 110539Z 1106/1206 21011KT P6SM SKC
     FM120100 18006KT P6SM FEW300=



000
FTUS44 KHGX 110539
TAFIAH
TAF
KIAH 110539Z 1106/1212 19007KT P6SM SKC
     FM111700 22012KT P6SM SKC
     FM120100 19005KT P6SM FEW300
     FM120900 VRB03KT 6SM BR FEW007=



000
FTUS44 KHGX 110539
TAFHOU
TAF
KHOU 110539Z 1106/1206 19007KT P6SM SKC
     FM111700 22014KT P6SM SKC
     FM120100 19005KT P6SM FEW300=



000
FTUS44 KHGX 110539
TAFSGR
TAF
KSGR 110539Z 1106/1206 20008KT P6SM SKC
     FM111700 22014KT P6SM SKC
     FM120100 19005KT P6SM FEW300=



000
FTUS44 KHGX 110539
TAFHOU
TAF
KHOU 110539Z 1106/1206 19007KT P6SM SKC
     FM111700 22014KT P6SM SKC
     FM120100 19005KT P6SM FEW300=



000
FTUS44 KHGX 110539
TAFCXO
TAF
KCXO 110539Z 1106/1206 21007KT P6SM SKC
     FM111600 22012KT P6SM SKC
     FM120100 18006KT P6SM FEW300=



000
FTUS44 KHGX 110539
TAFCLL
TAF
KCLL 110539Z 1106/1206 19008KT P6SM SKC
     FM111600 22013KT P6SM SKC
     FM120100 18007KT P6SM FEW300=



000
FTUS44 KHGX 110539
TAFLBX
TAF
KLBX 110539Z 1106/1206 19007KT P6SM SKC
     FM111700 21015KT P6SM SKC
     FM120100 19005KT P6SM FEW300=



000
FTUS44 KHGX 110539
TAFUTS
TAF
KUTS 110539Z 1106/1206 21011KT P6SM SKC
     FM120100 18006KT P6SM FEW300=



000
FTUS44 KHGX 110539
TAFSGR
TAF
KSGR 110539Z 1106/1206 20008KT P6SM SKC
     FM111700 22014KT P6SM SKC
     FM120100 19005KT P6SM FEW300=



000
FTUS44 KHGX 110539
TAFLBX
TAF
KLBX 110539Z 1106/1206 19007KT P6SM SKC
     FM111700 21015KT P6SM SKC
     FM120100 19005KT P6SM FEW300=



000
FTUS44 KHGX 110539
TAFIAH
TAF
KIAH 110539Z 1106/1212 19007KT P6SM SKC
     FM111700 22012KT P6SM SKC
     FM120100 19005KT P6SM FEW300
     FM120900 VRB03KT 6SM BR FEW007=



000
FTUS44 KHGX 110539
TAFGLS
TAF
KGLS 110539Z 1106/1206 19010KT P6SM SKC
     FM110900 22012KT P6SM SKC
     FM120100 19009KT P6SM SKC=



000
FTUS44 KHGX 110302 AAA
TAFUTS
TAF AMD
KUTS 110302Z 1103/1124 21011KT P6SM SKC=



000
FTUS44 KHGX 110302 AAA
TAFCLL
TAF AMD
KCLL 110302Z 1103/1124 20009KT P6SM SKC
     FM110600 22006KT P6SM SKC
     FM111600 22013KT P6SM SKC=



000
FTUS44 KHGX 110302 AAA
TAFCXO
TAF AMD
KCXO 110302Z 1103/1124 20007KT P6SM SKC
     FM111600 22012KT P6SM SKC=



000
FTUS44 KHGX 110302 AAA
TAFIAH
TAF AMD
KIAH 110302Z 1103/1206 19007KT P6SM SKC
     FM111700 22012KT P6SM SKC
     FM120100 19005KT P6SM FEW300=



000
FTUS44 KHGX 110302 AAA
TAFSGR
TAF AMD
KSGR 110302Z 1103/1124 20008KT P6SM SKC
     FM111700 22014KT P6SM SKC=



000
FTUS44 KHGX 110302 AAA
TAFHOU
TAF AMD
KHOU 110302Z 1103/1124 19007KT P6SM SKC
     FM111700 22014KT P6SM SKC=



000
FTUS44 KHGX 110302 AAA
TAFGLS
TAF AMD
KGLS 110302Z 1103/1124 18010KT P6SM SKC
     FM110900 22012KT P6SM SKC=



000
FTUS44 KHGX 110302 AAA
TAFLBX
TAF AMD
KLBX 110302Z 1103/1124 19007KT P6SM SKC
     FM111700 21015KT P6SM SKC=



000
FTUS44 KHGX 110302 AAA
TAFCXO
TAF AMD
KCXO 110302Z 1103/1124 20007KT P6SM SKC
     FM111600 22012KT P6SM SKC=



000
FTUS44 KHGX 102321
TAFHOU
TAF
KHOU 102321Z 1100/1124 17009KT P6SM SKC
     FM110100 22006KT P6SM SKC
     FM111700 22014KT P6SM SKC=



000
FTUS44 KHGX 102321
TAFLBX
TAF
KLBX 102321Z 1100/1124 19011KT P6SM SKC
     FM110600 20006KT P6SM SKC
     FM111700 21015KT P6SM SKC=



000
FTUS44 KHGX 102321
TAFSGR
TAF
KSGR 102321Z 1100/1124 17011KT P6SM SKC
     FM110100 22006KT P6SM SKC
     FM111700 22014KT P6SM SKC=



000
FTUS44 KHGX 102321
TAFCLL
TAF
KCLL 102321Z 1100/1124 21009KT P6SM SKC
     FM110600 22006KT P6SM SKC
     FM111600 22013KT P6SM SKC=



000
FTUS44 KHGX 102321
TAFIAH
TAF
KIAH 102321Z 1100/1206 22006KT P6SM SKC
     FM111700 22012KT P6SM SKC
     FM120100 19005KT P6SM FEW300=



000
FTUS44 KHGX 102321
TAFCLL
TAF
KCLL 102321Z 1100/1124 21009KT P6SM SKC
     FM110600 22006KT P6SM SKC
     FM111600 22013KT P6SM SKC=



000
FTUS44 KHGX 102321
TAFHOU
TAF
KHOU 102321Z 1100/1124 17009KT P6SM SKC
     FM110100 22006KT P6SM SKC
     FM111700 22014KT P6SM SKC=



000
FTUS44 KHGX 102321
TAFUTS
TAF
KUTS 102321Z 1100/1124 21011KT P6SM SKC=



000
FTUS44 KHGX 102321
TAFLBX
TAF
KLBX 102321Z 1100/1124 19011KT P6SM SKC
     FM110600 20006KT P6SM SKC
     FM111700 21015KT P6SM SKC=



000
FTUS44 KHGX 102321
TAFSGR
TAF
KSGR 102321Z 1100/1124 17011KT P6SM SKC
     FM110100 22006KT P6SM SKC
     FM111700 22014KT P6SM SKC=



000
FTUS44 KHGX 102321
TAFCXO
TAF
KCXO 102321Z 1100/1124 22006KT P6SM SKC
     FM111600 22012KT P6SM SKC=



000
FTUS44 KHGX 102321
TAFCLL
TAF
KCLL 102321Z 1100/1124 21009KT P6SM SKC
     FM110600 22006KT P6SM SKC
     FM111600 22013KT P6SM SKC=



000
FTUS44 KHGX 102321
TAFCXO
TAF
KCXO 102321Z 1100/1124 22006KT P6SM SKC
     FM111600 22012KT P6SM SKC=



000
FTUS44 KHGX 102321
TAFHOU
TAF
KHOU 102321Z 1100/1124 17009KT P6SM SKC
     FM110100 22006KT P6SM SKC
     FM111700 22014KT P6SM SKC=



000
FTUS44 KHGX 102321
TAFSGR
TAF
KSGR 102321Z 1100/1124 17011KT P6SM SKC
     FM110100 22006KT P6SM SKC
     FM111700 22014KT P6SM SKC=



000
FTUS44 KHGX 102321
TAFUTS
TAF
KUTS 102321Z 1100/1124 21011KT P6SM SKC=



000
FTUS44 KHGX 102321
TAFCXO
TAF
KCXO 102321Z 1100/1124 22006KT P6SM SKC
     FM111600 22012KT P6SM SKC=



000
FTUS44 KHGX 102321
TAFIAH
TAF
KIAH 102321Z 1100/1206 22006KT P6SM SKC
     FM111700 22012KT P6SM SKC
     FM120100 19005KT P6SM FEW300=



000
FTUS44 KHGX 102321
TAFIAH
TAF
KIAH 102321Z 1100/1206 22006KT P6SM SKC
     FM111700 22012KT P6SM SKC
     FM120100 19005KT P6SM FEW300=



000
FTUS44 KHGX 102321
TAFLBX
TAF
KLBX 102321Z 1100/1124 19011KT P6SM SKC
     FM110600 20006KT P6SM SKC
     FM111700 21015KT P6SM SKC=



000
FTUS44 KHGX 102321
TAFGLS
TAF
KGLS 102321Z 1100/1124 18012KT P6SM SKC
     FM110900 22012KT P6SM SKC=



000
FTUS44 KHGX 102321
TAFGLS
TAF
KGLS 102321Z 1100/1124 18012KT P6SM SKC
     FM110900 22012KT P6SM SKC=



000
FTUS44 KHGX 102321
TAFGLS
TAF
KGLS 102321Z 1100/1124 18012KT P6SM SKC
     FM110900 22012KT P6SM SKC=



000
FTUS44 KHGX 102321
TAFUTS
TAF
KUTS 102321Z 1100/1124 21011KT P6SM SKC=



000
FTUS44 KHGX 102147 AAA
TAFIAH
TAF AMD
KIAH 102147Z 1022/1124 VRB06KT P6SM SKC
     FM110000 17007KT P6SM SKC
     FM111200 24005KT P6SM SKC
     FM111800 22013KT P6SM SKC=



000
FTUS44 KHGX 102147 AAA
TAFHOU
TAF AMD
KHOU 102147Z 1022/1118 20010KT P6SM SKC
     FM110000 18007KT P6SM SKC
     FM110300 20005KT P6SM SKC
     FM110600 21005KT P6SM SKC
     FM110900 22005KT P6SM SKC
     FM111200 24004KT P6SM FEW250
     FM111500 23009KT P6SM FEW250=



000
FTUS44 KHGX 101725
TAFCLL
TAF
KCLL 101725Z 1018/1118 15006KT P6SM SKC
     FM102100 20012KT P6SM SKC
     FM110000 18006KT P6SM SKC
     FM110900 21006KT P6SM SKC
     FM111500 22010KT P6SM SKC=



000
FTUS44 KHGX 101725
TAFIAH
TAF
KIAH 101725Z 1018/1124 16006KT P6SM SKC
     FM102100 19008KT P6SM SKC
     FM110000 17007KT P6SM SKC
     FM111200 24005KT P6SM SKC
     FM111800 22013KT P6SM SKC=



000
FTUS44 KHGX 101725
TAFCXO
TAF
KCXO 101725Z 1018/1118 16004KT P6SM SKC
     FM102100 20010KT P6SM SKC
     FM110000 17007KT P6SM SKC
     FM110900 23006KT P6SM SKC=



000
FTUS44 KHGX 101725
TAFGLS
TAF
KGLS 101725Z 1018/1118 12008KT P6SM SKC
     FM102100 15009KT P6SM SKC
     FM110000 18009KT P6SM SKC
     FM110900 21010KT P6SM SKC=



000
FTUS44 KHGX 101725
TAFHOU
TAF
KHOU 101725Z 1018/1118 15005KT P6SM SKC
     FM102100 17007KT P6SM SKC
     FM110000 18007KT P6SM SKC
     FM110300 20005KT P6SM SKC
     FM110600 21005KT P6SM SKC
     FM110900 22005KT P6SM SKC
     FM111200 24004KT P6SM FEW250
     FM111500 23009KT P6SM FEW250=



000
FTUS44 KHGX 101725
TAFSGR
TAF
KSGR 101725Z 1018/1118 15007KT P6SM SKC
     FM102100 19009KT P6SM SKC
     FM111200 22004KT P6SM SKC
     FM111500 23010KT P6SM SKC=



000
FTUS44 KHGX 101725
TAFIAH
TAF
KIAH 101725Z 1018/1124 16006KT P6SM SKC
     FM102100 19008KT P6SM SKC
     FM110000 17007KT P6SM SKC
     FM111200 24005KT P6SM SKC
     FM111800 22013KT P6SM SKC=



000
FTUS44 KHGX 101725
TAFCLL
TAF
KCLL 101725Z 1018/1118 15006KT P6SM SKC
     FM102100 20012KT P6SM SKC
     FM110000 18006KT P6SM SKC
     FM110900 21006KT P6SM SKC
     FM111500 22010KT P6SM SKC=



000
FTUS44 KHGX 101725
TAFGLS
TAF
KGLS 101725Z 1018/1118 12008KT P6SM SKC
     FM102100 15009KT P6SM SKC
     FM110000 18009KT P6SM SKC
     FM110900 21010KT P6SM SKC=



000
FTUS44 KHGX 101725
TAFLBX
TAF
KLBX 101725Z 1018/1118 15007KT P6SM SKC
     FM102100 17009KT P6SM SKC
     FM110300 20004KT P6SM SKC
     FM111500 21010KT P6SM SKC=



000
FTUS44 KHGX 101725
TAFCXO
TAF
KCXO 101725Z 1018/1118 16004KT P6SM SKC
     FM102100 20010KT P6SM SKC
     FM110000 17007KT P6SM SKC
     FM110900 23006KT P6SM SKC=



000
FTUS44 KHGX 101725
TAFUTS
TAF
KUTS 101725Z 1018/1118 VRB03KT P6SM SKC
     FM102100 20010KT P6SM SKC
     FM110000 20004KT P6SM SKC
     FM111200 22010KT P6SM SKC=



000
FTUS44 KHGX 101725
TAFIAH
TAF
KIAH 101725Z 1018/1124 16006KT P6SM SKC
     FM102100 19008KT P6SM SKC
     FM110000 17007KT P6SM SKC
     FM111200 24005KT P6SM SKC
     FM111800 22013KT P6SM SKC=



000
FTUS44 KHGX 101725
TAFUTS
TAF
KUTS 101725Z 1018/1118 VRB03KT P6SM SKC
     FM102100 20010KT P6SM SKC
     FM110000 20004KT P6SM SKC
     FM111200 22010KT P6SM SKC=



000
FTUS44 KHGX 101725
TAFGLS
TAF
KGLS 101725Z 1018/1118 12008KT P6SM SKC
     FM102100 15009KT P6SM SKC
     FM110000 18009KT P6SM SKC
     FM110900 21010KT P6SM SKC=



000
FTUS44 KHGX 101725
TAFHOU
TAF
KHOU 101725Z 1018/1118 15005KT P6SM SKC
     FM102100 17007KT P6SM SKC
     FM110000 18007KT P6SM SKC
     FM110300 20005KT P6SM SKC
     FM110600 21005KT P6SM SKC
     FM110900 22005KT P6SM SKC
     FM111200 24004KT P6SM FEW250
     FM111500 23009KT P6SM FEW250=



000
FTUS44 KHGX 101725
TAFSGR
TAF
KSGR 101725Z 1018/1118 15007KT P6SM SKC
     FM102100 19009KT P6SM SKC
     FM111200 22004KT P6SM SKC
     FM111500 23010KT P6SM SKC=



000
FTUS44 KHGX 101725
TAFLBX
TAF
KLBX 101725Z 1018/1118 15007KT P6SM SKC
     FM102100 17009KT P6SM SKC
     FM110300 20004KT P6SM SKC
     FM111500 21010KT P6SM SKC=



000
FTUS44 KHGX 101725
TAFCLL
TAF
KCLL 101725Z 1018/1118 15006KT P6SM SKC
     FM102100 20012KT P6SM SKC
     FM110000 18006KT P6SM SKC
     FM110900 21006KT P6SM SKC
     FM111500 22010KT P6SM SKC=



000
FTUS44 KHGX 101725
TAFCXO
TAF
KCXO 101725Z 1018/1118 16004KT P6SM SKC
     FM102100 20010KT P6SM SKC
     FM110000 17007KT P6SM SKC
     FM110900 23006KT P6SM SKC=



000
FTUS44 KHGX 101725
TAFHOU
TAF
KHOU 101725Z 1018/1118 15005KT P6SM SKC
     FM102100 17007KT P6SM SKC
     FM110000 18007KT P6SM SKC
     FM110300 20005KT P6SM SKC
     FM110600 21005KT P6SM SKC
     FM110900 22005KT P6SM SKC
     FM111200 24004KT P6SM FEW250
     FM111500 23009KT P6SM FEW250=



000
FTUS44 KHGX 101725
TAFSGR
TAF
KSGR 101725Z 1018/1118 15007KT P6SM SKC
     FM102100 19009KT P6SM SKC
     FM111200 22004KT P6SM SKC
     FM111500 23010KT P6SM SKC=



000
FTUS44 KHGX 101725
TAFLBX
TAF
KLBX 101725Z 1018/1118 15007KT P6SM SKC
     FM102100 17009KT P6SM SKC
     FM110300 20004KT P6SM SKC
     FM111500 21010KT P6SM SKC=



000
FTUS44 KHGX 101725
TAFUTS
TAF
KUTS 101725Z 1018/1118 VRB03KT P6SM SKC
     FM102100 20010KT P6SM SKC
     FM110000 20004KT P6SM SKC
     FM111200 22010KT P6SM SKC=



000
FTUS44 KHGX 101522 AAA
TAFSGR
TAF AMD
KSGR 101522Z 1015/1112 11007KT P6SM SKC
     FM101800 16009KT P6SM SKC
     FM110100 21005KT P6SM SKC=



000
FTUS44 KHGX 101522 AAA
TAFHOU
TAF AMD
KHOU 101522Z 1015/1112 08007KT P6SM SKC
     FM101800 16008KT P6SM SKC
     FM110100 22005KT P6SM SKC=



000
FTUS44 KHGX 101522 AAA
TAFIAH
TAF AMD
KIAH 101522Z 1015/1118 13005KT P6SM SKC
     FM101800 16008KT P6SM SKC
     FM110100 22004KT P6SM SKC
     FM111500 24008KT P6SM SKC=



000
FTUS44 KHGX 101522 AAA
TAFSGR
TAF AMD
KSGR 101522Z 1015/1112 11007KT P6SM SKC
     FM101800 16009KT P6SM SKC
     FM110100 21005KT P6SM SKC=



000
FTUS44 KHGX 101522 AAA
TAFHOU
TAF AMD
KHOU 101522Z 1015/1112 08007KT P6SM SKC
     FM101800 16008KT P6SM SKC
     FM110100 22005KT P6SM SKC=



000
FTUS44 KHGX 101522 AAA
TAFIAH
TAF AMD
KIAH 101522Z 1015/1118 13005KT P6SM SKC
     FM101800 16008KT P6SM SKC
     FM110100 22004KT P6SM SKC
     FM111500 24008KT P6SM SKC=



000
FTUS44 KHGX 101522 AAA
TAFHOU
TAF AMD
KHOU 101522Z 1015/1112 08007KT P6SM SKC
     FM101800 16008KT P6SM SKC
     FM110100 22005KT P6SM SKC=



000
FTUS44 KHGX 101522 AAA
TAFIAH
TAF AMD
KIAH 101522Z 1015/1118 13005KT P6SM SKC
     FM101800 16008KT P6SM SKC
     FM110100 22004KT P6SM SKC
     FM111500 24008KT P6SM SKC=



000
FTUS44 KHGX 101522 AAA
TAFSGR
TAF AMD
KSGR 101522Z 1015/1112 11007KT P6SM SKC
     FM101800 16009KT P6SM SKC
     FM110100 21005KT P6SM SKC=



000
FTUS44 KHGX 101120
TAFCXO
TAF
KCXO 101120Z 1012/1112 VRB04KT P6SM SKC
     FM101800 18008KT P6SM SKC
     FM110100 21005KT P6SM SKC=



000
FTUS44 KHGX 101120
TAFGLS
TAF
KGLS 101120Z 1012/1112 04009KT P6SM SKC
     FM102100 17009KT P6SM SKC
     FM110400 21009KT P6SM SKC=



000
FTUS44 KHGX 101120
TAFHOU
TAF
KHOU 101120Z 1012/1112 VRB04KT P6SM SKC
     FM101800 18008KT P6SM SKC
     FM110100 22005KT P6SM SKC=



000
FTUS44 KHGX 101120
TAFUTS
TAF
KUTS 101120Z 1012/1112 VRB04KT P6SM SKC
     FM101800 20008KT P6SM SKC=



000
FTUS44 KHGX 101120
TAFLBX
TAF
KLBX 101120Z 1012/1112 VRB04KT P6SM SKC
     FM102000 18009KT P6SM SKC
     FM110100 21004KT P6SM SKC=



000
FTUS44 KHGX 101120
TAFIAH
TAF
KIAH 101120Z 1012/1118 VRB04KT P6SM SKC
     FM101800 18008KT P6SM SKC
     FM110100 22004KT P6SM SKC
     FM111500 24008KT P6SM SKC=



000
FTUS44 KHGX 101120
TAFCLL
TAF
KCLL 101120Z 1012/1112 VRB04KT P6SM SKC
     FM101800 19010KT P6SM SKC=



000
FTUS44 KHGX 101120
TAFSGR
TAF
KSGR 101120Z 1012/1112 VRB04KT P6SM SKC
     FM101800 19008KT P6SM SKC
     FM110100 21005KT P6SM SKC=



000
FTUS44 KHGX 100859 AAA
TAFIAH
TAF AMD
KIAH 100859Z 1009/1112 VRB04KT P6SM SKC
     FM101800 19008KT P6SM SKC
     FM110100 22004KT P6SM SKC=



000
FTUS44 KHGX 100859 AAA
TAFHOU
TAF AMD
KHOU 100859Z 1009/1106 VRB04KT P6SM SKC
     FM101800 20008KT P6SM SKC
     FM110100 22004KT P6SM SKC=



    US Dept of Commerce
    National Oceanic and Atmospheric Administration
    National Weather Service
    1325 East West Highway
    Silver Spring, MD 20910
    Page Author: NWS Internet Services Team
Disclaimer
Information Quality
Credits
Glossary
Privacy Policy
Freedom of Information Act (FOIA)
About Us
Career Opportunities